<?xml version="1.0" encoding="UTF-8" standalone="yes"?>
<gpx
 xmlns="http://www.topografix.com/GPX/1/1"
 creator="OziExplorer Version 3956f - http://www.oziexplorer.com"
 version="1.1"
 xmlns:xsi="http://www.w3.org/2001/XMLSchema-instance"
 xsi:schemaLocation="http://www.topografix.com/GPX/1/1 http://www.topografix.com/GPX/1/1/gpx.xsd">
<metadata>
 <time>2018-03-18T08:19:13Z</time>
 <bounds minlat="32.588154" minlon="35.346974" maxlat="32.624224" maxlon="35.394334"/>
</metadata>
<trk>
 <name>GivatHamoreSingl 29km</name>
 <desc>GivatHamoreSingl 29km</desc>
<trkseg>
<trkpt lat="32.6040109" lon="35.3941141">
<ele>61.000004</ele>
<time>2010-01-01T00:00:00.000Z</time>
</trkpt>
<trkpt lat="32.6038438" lon="35.3939589">
<ele>59.000000</ele>
<time>2010-01-01T00:00:08.000Z</time>
</trkpt>
<trkpt lat="32.6038778" lon="35.3937388">
<ele>59.000000</ele>
<time>2010-01-01T00:00:16.000Z</time>
</trkpt>
<trkpt lat="32.6039128" lon="35.3934731">
<ele>59.000000</ele>
<time>2010-01-01T00:00:25.000Z</time>
</trkpt>
<trkpt lat="32.6039482" lon="35.3932230">
<ele>59.000000</ele>
<time>2010-01-01T00:00:33.000Z</time>
</trkpt>
<trkpt lat="32.6039750" lon="35.3929560">
<ele>59.000000</ele>
<time>2010-01-01T00:00:42.000Z</time>
</trkpt>
<trkpt lat="32.6040089" lon="35.3926994">
<ele>59.000000</ele>
<time>2010-01-01T00:00:51.000Z</time>
</trkpt>
<trkpt lat="32.6040362" lon="35.3924454">
<ele>61.000004</ele>
<time>2010-01-01T00:01:00.000Z</time>
</trkpt>
<trkpt lat="32.6040603" lon="35.3921893">
<ele>63.000000</ele>
<time>2010-01-01T00:01:08.000Z</time>
</trkpt>
<trkpt lat="32.6040909" lon="35.3919323">
<ele>65.000000</ele>
<time>2010-01-01T00:01:17.000Z</time>
</trkpt>
<trkpt lat="32.6041203" lon="35.3916783">
<ele>66.000000</ele>
<time>2010-01-01T00:01:26.000Z</time>
</trkpt>
<trkpt lat="32.6041479" lon="35.3914163">
<ele>66.000000</ele>
<time>2010-01-01T00:01:35.000Z</time>
</trkpt>
<trkpt lat="32.6041767" lon="35.3911689">
<ele>66.000000</ele>
<time>2010-01-01T00:01:43.000Z</time>
</trkpt>
<trkpt lat="32.6042021" lon="35.3909183">
<ele>66.000000</ele>
<time>2010-01-01T00:01:52.000Z</time>
</trkpt>
<trkpt lat="32.6042268" lon="35.3906704">
<ele>68.000000</ele>
<time>2010-01-01T00:02:00.000Z</time>
</trkpt>
<trkpt lat="32.6042532" lon="35.3904196">
<ele>69.000000</ele>
<time>2010-01-01T00:02:08.000Z</time>
</trkpt>
<trkpt lat="32.6042828" lon="35.3901796">
<ele>71.000000</ele>
<time>2010-01-01T00:02:17.000Z</time>
</trkpt>
<trkpt lat="32.6043133" lon="35.3899352">
<ele>72.000000</ele>
<time>2010-01-01T00:02:25.000Z</time>
</trkpt>
<trkpt lat="32.6043427" lon="35.3896979">
<ele>74.000000</ele>
<time>2010-01-01T00:02:33.000Z</time>
</trkpt>
<trkpt lat="32.6043706" lon="35.3894568">
<ele>75.000000</ele>
<time>2010-01-01T00:02:41.000Z</time>
</trkpt>
<trkpt lat="32.6043922" lon="35.3892292">
<ele>76.000000</ele>
<time>2010-01-01T00:02:49.000Z</time>
</trkpt>
<trkpt lat="32.6044128" lon="35.3890034">
<ele>76.000000</ele>
<time>2010-01-01T00:02:57.000Z</time>
</trkpt>
<trkpt lat="32.6044310" lon="35.3887805">
<ele>76.000000</ele>
<time>2010-01-01T00:03:04.000Z</time>
</trkpt>
<trkpt lat="32.6044514" lon="35.3885470">
<ele>77.000000</ele>
<time>2010-01-01T00:03:12.000Z</time>
</trkpt>
<trkpt lat="32.6044795" lon="35.3883150">
<ele>79.000000</ele>
<time>2010-01-01T00:03:20.000Z</time>
</trkpt>
<trkpt lat="32.6045120" lon="35.3880791">
<ele>80.999992</ele>
<time>2010-01-01T00:03:28.000Z</time>
</trkpt>
<trkpt lat="32.6045442" lon="35.3878354">
<ele>85.000000</ele>
<time>2010-01-01T00:03:36.000Z</time>
</trkpt>
<trkpt lat="32.6045691" lon="35.3876101">
<ele>87.000000</ele>
<time>2010-01-01T00:03:44.000Z</time>
</trkpt>
<trkpt lat="32.6046035" lon="35.3873860">
<ele>87.999992</ele>
<time>2010-01-01T00:03:52.000Z</time>
</trkpt>
<trkpt lat="32.6046323" lon="35.3871530">
<ele>87.999992</ele>
<time>2010-01-01T00:04:00.000Z</time>
</trkpt>
<trkpt lat="32.6046688" lon="35.3869189">
<ele>87.000000</ele>
<time>2010-01-01T00:04:08.000Z</time>
</trkpt>
<trkpt lat="32.6046821" lon="35.3866865">
<ele>86.000000</ele>
<time>2010-01-01T00:04:16.000Z</time>
</trkpt>
<trkpt lat="32.6045759" lon="35.3864916">
<ele>87.000000</ele>
<time>2010-01-01T00:04:23.000Z</time>
</trkpt>
<trkpt lat="32.6043960" lon="35.3863479">
<ele>87.999992</ele>
<time>2010-01-01T00:04:32.000Z</time>
</trkpt>
<trkpt lat="32.6043888" lon="35.3861267">
<ele>92.000000</ele>
<time>2010-01-01T00:04:40.000Z</time>
</trkpt>
<trkpt lat="32.6042003" lon="35.3861533">
<ele>93.000000</ele>
<time>2010-01-01T00:04:47.000Z</time>
</trkpt>
<trkpt lat="32.6039924" lon="35.3861899">
<ele>94.000000</ele>
<time>2010-01-01T00:04:56.000Z</time>
</trkpt>
<trkpt lat="32.6037750" lon="35.3861284">
<ele>96.999992</ele>
<time>2010-01-01T00:05:05.000Z</time>
</trkpt>
<trkpt lat="32.6035934" lon="35.3860715">
<ele>98.000000</ele>
<time>2010-01-01T00:05:12.000Z</time>
</trkpt>
<trkpt lat="32.6034102" lon="35.3860542">
<ele>99.000000</ele>
<time>2010-01-01T00:05:19.000Z</time>
</trkpt>
<trkpt lat="32.6032216" lon="35.3860406">
<ele>100.000000</ele>
<time>2010-01-01T00:05:27.000Z</time>
</trkpt>
<trkpt lat="32.6030306" lon="35.3860089">
<ele>101.000000</ele>
<time>2010-01-01T00:05:35.000Z</time>
</trkpt>
<trkpt lat="32.6028443" lon="35.3860092">
<ele>102.000000</ele>
<time>2010-01-01T00:05:42.000Z</time>
</trkpt>
<trkpt lat="32.6026656" lon="35.3859244">
<ele>105.000000</ele>
<time>2010-01-01T00:05:50.000Z</time>
</trkpt>
<trkpt lat="32.6024852" lon="35.3859095">
<ele>106.000008</ele>
<time>2010-01-01T00:05:57.000Z</time>
</trkpt>
<trkpt lat="32.6023121" lon="35.3858292">
<ele>108.000000</ele>
<time>2010-01-01T00:06:05.000Z</time>
</trkpt>
<trkpt lat="32.6021206" lon="35.3858016">
<ele>108.000000</ele>
<time>2010-01-01T00:06:12.000Z</time>
</trkpt>
<trkpt lat="32.6019401" lon="35.3857643">
<ele>108.000000</ele>
<time>2010-01-01T00:06:20.000Z</time>
</trkpt>
<trkpt lat="32.6017478" lon="35.3857511">
<ele>108.000000</ele>
<time>2010-01-01T00:06:27.000Z</time>
</trkpt>
<trkpt lat="32.6015454" lon="35.3857452">
<ele>108.000000</ele>
<time>2010-01-01T00:06:35.000Z</time>
</trkpt>
<trkpt lat="32.6013594" lon="35.3857556">
<ele>108.000000</ele>
<time>2010-01-01T00:06:43.000Z</time>
</trkpt>
<trkpt lat="32.6011264" lon="35.3857227">
<ele>109.000000</ele>
<time>2010-01-01T00:06:52.000Z</time>
</trkpt>
<trkpt lat="32.6009424" lon="35.3856895">
<ele>109.000000</ele>
<time>2010-01-01T00:07:00.000Z</time>
</trkpt>
<trkpt lat="32.6007323" lon="35.3856403">
<ele>110.000000</ele>
<time>2010-01-01T00:07:08.000Z</time>
</trkpt>
<trkpt lat="32.6005150" lon="35.3856594">
<ele>110.000000</ele>
<time>2010-01-01T00:07:17.000Z</time>
</trkpt>
<trkpt lat="32.6002992" lon="35.3856031">
<ele>112.999992</ele>
<time>2010-01-01T00:07:26.000Z</time>
</trkpt>
<trkpt lat="32.6000855" lon="35.3855176">
<ele>118.000000</ele>
<time>2010-01-01T00:07:35.000Z</time>
</trkpt>
<trkpt lat="32.6001939" lon="35.3853268">
<ele>120.000000</ele>
<time>2010-01-01T00:07:43.000Z</time>
</trkpt>
<trkpt lat="32.6004111" lon="35.3853219">
<ele>118.000000</ele>
<time>2010-01-01T00:07:51.000Z</time>
</trkpt>
<trkpt lat="32.6006061" lon="35.3852236">
<ele>118.000000</ele>
<time>2010-01-01T00:08:00.000Z</time>
</trkpt>
<trkpt lat="32.6008176" lon="35.3851411">
<ele>117.000000</ele>
<time>2010-01-01T00:08:09.000Z</time>
</trkpt>
<trkpt lat="32.6010207" lon="35.3850355">
<ele>118.000000</ele>
<time>2010-01-01T00:08:18.000Z</time>
</trkpt>
<trkpt lat="32.6012070" lon="35.3849466">
<ele>119.000000</ele>
<time>2010-01-01T00:08:26.000Z</time>
</trkpt>
<trkpt lat="32.6014265" lon="35.3849488">
<ele>120.000000</ele>
<time>2010-01-01T00:08:34.000Z</time>
</trkpt>
<trkpt lat="32.6016083" lon="35.3849703">
<ele>121.000000</ele>
<time>2010-01-01T00:08:42.000Z</time>
</trkpt>
<trkpt lat="32.6017880" lon="35.3849416">
<ele>121.000000</ele>
<time>2010-01-01T00:08:49.000Z</time>
</trkpt>
<trkpt lat="32.6020255" lon="35.3848785">
<ele>122.000008</ele>
<time>2010-01-01T00:08:59.000Z</time>
</trkpt>
<trkpt lat="32.6022124" lon="35.3848136">
<ele>123.000000</ele>
<time>2010-01-01T00:09:07.000Z</time>
</trkpt>
<trkpt lat="32.6023984" lon="35.3847248">
<ele>123.000000</ele>
<time>2010-01-01T00:09:15.000Z</time>
</trkpt>
<trkpt lat="32.6025720" lon="35.3846417">
<ele>123.000000</ele>
<time>2010-01-01T00:09:22.000Z</time>
</trkpt>
<trkpt lat="32.6027469" lon="35.3845468">
<ele>123.000000</ele>
<time>2010-01-01T00:09:30.000Z</time>
</trkpt>
<trkpt lat="32.6029365" lon="35.3844329">
<ele>122.000008</ele>
<time>2010-01-01T00:09:38.000Z</time>
</trkpt>
<trkpt lat="32.6031046" lon="35.3842318">
<ele>121.000000</ele>
<time>2010-01-01T00:09:48.000Z</time>
</trkpt>
<trkpt lat="32.6031775" lon="35.3839475">
<ele>121.000000</ele>
<time>2010-01-01T00:09:58.000Z</time>
</trkpt>
<trkpt lat="32.6031801" lon="35.3836440">
<ele>122.000008</ele>
<time>2010-01-01T00:10:08.000Z</time>
</trkpt>
<trkpt lat="32.6030468" lon="35.3834332">
<ele>123.000000</ele>
<time>2010-01-01T00:10:17.000Z</time>
</trkpt>
<trkpt lat="32.6028411" lon="35.3832754">
<ele>126.000000</ele>
<time>2010-01-01T00:10:27.000Z</time>
</trkpt>
<trkpt lat="32.6027984" lon="35.3830140">
<ele>127.000000</ele>
<time>2010-01-01T00:10:36.000Z</time>
</trkpt>
<trkpt lat="32.6028414" lon="35.3827839">
<ele>127.000000</ele>
<time>2010-01-01T00:10:44.000Z</time>
</trkpt>
<trkpt lat="32.6027996" lon="35.3825537">
<ele>128.000000</ele>
<time>2010-01-01T00:10:52.000Z</time>
</trkpt>
<trkpt lat="32.6027178" lon="35.3823199">
<ele>129.000000</ele>
<time>2010-01-01T00:11:00.000Z</time>
</trkpt>
<trkpt lat="32.6028116" lon="35.3821064">
<ele>128.000000</ele>
<time>2010-01-01T00:11:08.000Z</time>
</trkpt>
<trkpt lat="32.6028573" lon="35.3818811">
<ele>129.000000</ele>
<time>2010-01-01T00:11:16.000Z</time>
</trkpt>
<trkpt lat="32.6029165" lon="35.3816463">
<ele>133.000000</ele>
<time>2010-01-01T00:11:24.000Z</time>
</trkpt>
<trkpt lat="32.6029484" lon="35.3814150">
<ele>135.000000</ele>
<time>2010-01-01T00:11:32.000Z</time>
</trkpt>
<trkpt lat="32.6029800" lon="35.3811994">
<ele>136.000000</ele>
<time>2010-01-01T00:11:40.000Z</time>
</trkpt>
<trkpt lat="32.6030123" lon="35.3809881">
<ele>137.000000</ele>
<time>2010-01-01T00:11:47.000Z</time>
</trkpt>
<trkpt lat="32.6030058" lon="35.3807647">
<ele>138.000000</ele>
<time>2010-01-01T00:11:54.000Z</time>
</trkpt>
<trkpt lat="32.6030114" lon="35.3805418">
<ele>139.000000</ele>
<time>2010-01-01T00:12:02.000Z</time>
</trkpt>
<trkpt lat="32.6030037" lon="35.3803079">
<ele>143.000000</ele>
<time>2010-01-01T00:12:10.000Z</time>
</trkpt>
<trkpt lat="32.6029922" lon="35.3800805">
<ele>145.000000</ele>
<time>2010-01-01T00:12:18.000Z</time>
</trkpt>
<trkpt lat="32.6029789" lon="35.3798588">
<ele>146.000000</ele>
<time>2010-01-01T00:12:25.000Z</time>
</trkpt>
<trkpt lat="32.6029683" lon="35.3796238">
<ele>147.000000</ele>
<time>2010-01-01T00:12:33.000Z</time>
</trkpt>
<trkpt lat="32.6029743" lon="35.3793805">
<ele>148.000000</ele>
<time>2010-01-01T00:12:41.000Z</time>
</trkpt>
<trkpt lat="32.6030094" lon="35.3791076">
<ele>149.000000</ele>
<time>2010-01-01T00:12:50.000Z</time>
</trkpt>
<trkpt lat="32.6030993" lon="35.3788592">
<ele>151.000000</ele>
<time>2010-01-01T00:13:00.000Z</time>
</trkpt>
<trkpt lat="32.6032389" lon="35.3786958">
<ele>152.000000</ele>
<time>2010-01-01T00:13:07.000Z</time>
</trkpt>
<trkpt lat="32.6034228" lon="35.3786879">
<ele>152.000000</ele>
<time>2010-01-01T00:13:15.000Z</time>
</trkpt>
<trkpt lat="32.6036244" lon="35.3788038">
<ele>150.000000</ele>
<time>2010-01-01T00:13:24.000Z</time>
</trkpt>
<trkpt lat="32.6038244" lon="35.3789323">
<ele>149.000000</ele>
<time>2010-01-01T00:13:33.000Z</time>
</trkpt>
<trkpt lat="32.6040550" lon="35.3790804">
<ele>146.000000</ele>
<time>2010-01-01T00:13:43.000Z</time>
</trkpt>
<trkpt lat="32.6043596" lon="35.3791751">
<ele>146.000000</ele>
<time>2010-01-01T00:13:56.000Z</time>
</trkpt>
<trkpt lat="32.6046098" lon="35.3791564">
<ele>149.000000</ele>
<time>2010-01-01T00:14:06.000Z</time>
</trkpt>
<trkpt lat="32.6048685" lon="35.3791173">
<ele>149.000000</ele>
<time>2010-01-01T00:14:16.000Z</time>
</trkpt>
<trkpt lat="32.6050444" lon="35.3790715">
<ele>149.000000</ele>
<time>2010-01-01T00:14:24.000Z</time>
</trkpt>
<trkpt lat="32.6052351" lon="35.3790229">
<ele>148.000000</ele>
<time>2010-01-01T00:14:31.000Z</time>
</trkpt>
<trkpt lat="32.6054522" lon="35.3789316">
<ele>149.000000</ele>
<time>2010-01-01T00:14:41.000Z</time>
</trkpt>
<trkpt lat="32.6056557" lon="35.3788342">
<ele>151.000000</ele>
<time>2010-01-01T00:14:49.000Z</time>
</trkpt>
<trkpt lat="32.6058294" lon="35.3787619">
<ele>154.000000</ele>
<time>2010-01-01T00:14:57.000Z</time>
</trkpt>
<trkpt lat="32.6060654" lon="35.3787193">
<ele>154.000000</ele>
<time>2010-01-01T00:15:06.000Z</time>
</trkpt>
<trkpt lat="32.6062176" lon="35.3785821">
<ele>154.000000</ele>
<time>2010-01-01T00:15:14.000Z</time>
</trkpt>
<trkpt lat="32.6063650" lon="35.3784492">
<ele>152.000000</ele>
<time>2010-01-01T00:15:21.000Z</time>
</trkpt>
<trkpt lat="32.6064902" lon="35.3782422">
<ele>153.000000</ele>
<time>2010-01-01T00:15:30.000Z</time>
</trkpt>
<trkpt lat="32.6066398" lon="35.3780351">
<ele>154.000000</ele>
<time>2010-01-01T00:15:39.000Z</time>
</trkpt>
<trkpt lat="32.6067535" lon="35.3777868">
<ele>158.000000</ele>
<time>2010-01-01T00:15:49.000Z</time>
</trkpt>
<trkpt lat="32.6068414" lon="35.3775568">
<ele>159.000000</ele>
<time>2010-01-01T00:15:57.000Z</time>
</trkpt>
<trkpt lat="32.6068920" lon="35.3773379">
<ele>159.000000</ele>
<time>2010-01-01T00:16:05.000Z</time>
</trkpt>
<trkpt lat="32.6069615" lon="35.3771216">
<ele>158.000000</ele>
<time>2010-01-01T00:16:13.000Z</time>
</trkpt>
<trkpt lat="32.6070784" lon="35.3769494">
<ele>156.000000</ele>
<time>2010-01-01T00:16:20.000Z</time>
</trkpt>
<trkpt lat="32.6071802" lon="35.3767026">
<ele>157.000000</ele>
<time>2010-01-01T00:16:29.000Z</time>
</trkpt>
<trkpt lat="32.6072725" lon="35.3764953">
<ele>161.000000</ele>
<time>2010-01-01T00:16:37.000Z</time>
</trkpt>
<trkpt lat="32.6073626" lon="35.3762983">
<ele>165.000000</ele>
<time>2010-01-01T00:16:45.000Z</time>
</trkpt>
<trkpt lat="32.6074603" lon="35.3764794">
<ele>161.000000</ele>
<time>2010-01-01T00:16:52.000Z</time>
</trkpt>
<trkpt lat="32.6074450" lon="35.3766971">
<ele>159.000000</ele>
<time>2010-01-01T00:17:00.000Z</time>
</trkpt>
<trkpt lat="32.6074453" lon="35.3769183">
<ele>158.000000</ele>
<time>2010-01-01T00:17:07.000Z</time>
</trkpt>
<trkpt lat="32.6075465" lon="35.3767312">
<ele>161.000000</ele>
<time>2010-01-01T00:17:15.000Z</time>
</trkpt>
<trkpt lat="32.6076011" lon="35.3764828">
<ele>164.000000</ele>
<time>2010-01-01T00:17:23.000Z</time>
</trkpt>
<trkpt lat="32.6076380" lon="35.3762295">
<ele>167.000000</ele>
<time>2010-01-01T00:17:32.000Z</time>
</trkpt>
<trkpt lat="32.6076832" lon="35.3760047">
<ele>171.000000</ele>
<time>2010-01-01T00:17:40.000Z</time>
</trkpt>
<trkpt lat="32.6076866" lon="35.3762400">
<ele>168.000000</ele>
<time>2010-01-01T00:17:48.000Z</time>
</trkpt>
<trkpt lat="32.6076932" lon="35.3764876">
<ele>166.000000</ele>
<time>2010-01-01T00:17:56.000Z</time>
</trkpt>
<trkpt lat="32.6077304" lon="35.3767194">
<ele>167.000000</ele>
<time>2010-01-01T00:18:04.000Z</time>
</trkpt>
<trkpt lat="32.6077534" lon="35.3769498">
<ele>167.000000</ele>
<time>2010-01-01T00:18:12.000Z</time>
</trkpt>
<trkpt lat="32.6077404" lon="35.3771685">
<ele>167.000000</ele>
<time>2010-01-01T00:18:19.000Z</time>
</trkpt>
<trkpt lat="32.6076648" lon="35.3774352">
<ele>164.000000</ele>
<time>2010-01-01T00:18:29.000Z</time>
</trkpt>
<trkpt lat="32.6075370" lon="35.3776902">
<ele>163.000000</ele>
<time>2010-01-01T00:18:39.000Z</time>
</trkpt>
<trkpt lat="32.6074276" lon="35.3779050">
<ele>161.000000</ele>
<time>2010-01-01T00:18:47.000Z</time>
</trkpt>
<trkpt lat="32.6073084" lon="35.3781213">
<ele>157.000000</ele>
<time>2010-01-01T00:18:56.000Z</time>
</trkpt>
<trkpt lat="32.6073308" lon="35.3783963">
<ele>155.000000</ele>
<time>2010-01-01T00:19:05.000Z</time>
</trkpt>
<trkpt lat="32.6074985" lon="35.3785930">
<ele>154.000000</ele>
<time>2010-01-01T00:19:15.000Z</time>
</trkpt>
<trkpt lat="32.6077221" lon="35.3786576">
<ele>154.000000</ele>
<time>2010-01-01T00:19:24.000Z</time>
</trkpt>
<trkpt lat="32.6079780" lon="35.3787515">
<ele>155.000000</ele>
<time>2010-01-01T00:19:34.000Z</time>
</trkpt>
<trkpt lat="32.6081448" lon="35.3788523">
<ele>154.000000</ele>
<time>2010-01-01T00:19:42.000Z</time>
</trkpt>
<trkpt lat="32.6083713" lon="35.3789149">
<ele>154.000000</ele>
<time>2010-01-01T00:19:51.000Z</time>
</trkpt>
<trkpt lat="32.6086087" lon="35.3788828">
<ele>155.000000</ele>
<time>2010-01-01T00:20:01.000Z</time>
</trkpt>
<trkpt lat="32.6088217" lon="35.3788837">
<ele>154.000000</ele>
<time>2010-01-01T00:20:09.000Z</time>
</trkpt>
<trkpt lat="32.6090254" lon="35.3788549">
<ele>154.000000</ele>
<time>2010-01-01T00:20:18.000Z</time>
</trkpt>
<trkpt lat="32.6092534" lon="35.3788165">
<ele>155.000000</ele>
<time>2010-01-01T00:20:27.000Z</time>
</trkpt>
<trkpt lat="32.6094683" lon="35.3788394">
<ele>157.000000</ele>
<time>2010-01-01T00:20:35.000Z</time>
</trkpt>
<trkpt lat="32.6096650" lon="35.3787760">
<ele>160.000000</ele>
<time>2010-01-01T00:20:44.000Z</time>
</trkpt>
<trkpt lat="32.6095732" lon="35.3790082">
<ele>159.000000</ele>
<time>2010-01-01T00:20:52.000Z</time>
</trkpt>
<trkpt lat="32.6093858" lon="35.3790968">
<ele>159.000000</ele>
<time>2010-01-01T00:21:00.000Z</time>
</trkpt>
<trkpt lat="32.6092028" lon="35.3791051">
<ele>156.000000</ele>
<time>2010-01-01T00:21:08.000Z</time>
</trkpt>
<trkpt lat="32.6090193" lon="35.3791229">
<ele>155.000000</ele>
<time>2010-01-01T00:21:15.000Z</time>
</trkpt>
<trkpt lat="32.6087877" lon="35.3791706">
<ele>154.000000</ele>
<time>2010-01-01T00:21:24.000Z</time>
</trkpt>
<trkpt lat="32.6085832" lon="35.3792289">
<ele>154.000000</ele>
<time>2010-01-01T00:21:33.000Z</time>
</trkpt>
<trkpt lat="32.6083426" lon="35.3792030">
<ele>154.000000</ele>
<time>2010-01-01T00:21:42.000Z</time>
</trkpt>
<trkpt lat="32.6081504" lon="35.3792357">
<ele>155.000000</ele>
<time>2010-01-01T00:21:50.000Z</time>
</trkpt>
<trkpt lat="32.6079270" lon="35.3792460">
<ele>155.000000</ele>
<time>2010-01-01T00:21:59.000Z</time>
</trkpt>
<trkpt lat="32.6077104" lon="35.3792710">
<ele>154.000000</ele>
<time>2010-01-01T00:22:08.000Z</time>
</trkpt>
<trkpt lat="32.6074784" lon="35.3792918">
<ele>151.000000</ele>
<time>2010-01-01T00:22:17.000Z</time>
</trkpt>
<trkpt lat="32.6072558" lon="35.3792942">
<ele>149.000000</ele>
<time>2010-01-01T00:22:26.000Z</time>
</trkpt>
<trkpt lat="32.6069881" lon="35.3794083">
<ele>147.000000</ele>
<time>2010-01-01T00:22:38.000Z</time>
</trkpt>
<trkpt lat="32.6068191" lon="35.3795137">
<ele>145.000000</ele>
<time>2010-01-01T00:22:45.000Z</time>
</trkpt>
<trkpt lat="32.6068190" lon="35.3797312">
<ele>146.000000</ele>
<time>2010-01-01T00:22:53.000Z</time>
</trkpt>
<trkpt lat="32.6068811" lon="35.3799560">
<ele>147.000000</ele>
<time>2010-01-01T00:23:00.000Z</time>
</trkpt>
<trkpt lat="32.6068825" lon="35.3802022">
<ele>149.000000</ele>
<time>2010-01-01T00:23:09.000Z</time>
</trkpt>
<trkpt lat="32.6066841" lon="35.3803416">
<ele>145.000000</ele>
<time>2010-01-01T00:23:18.000Z</time>
</trkpt>
<trkpt lat="32.6064364" lon="35.3803834">
<ele>142.000000</ele>
<time>2010-01-01T00:23:28.000Z</time>
</trkpt>
<trkpt lat="32.6062370" lon="35.3806017">
<ele>142.000000</ele>
<time>2010-01-01T00:23:39.000Z</time>
</trkpt>
<trkpt lat="32.6060589" lon="35.3807389">
<ele>142.000000</ele>
<time>2010-01-01T00:23:47.000Z</time>
</trkpt>
<trkpt lat="32.6058637" lon="35.3808259">
<ele>142.000000</ele>
<time>2010-01-01T00:23:56.000Z</time>
</trkpt>
<trkpt lat="32.6056460" lon="35.3806552">
<ele>138.000000</ele>
<time>2010-01-01T00:24:06.000Z</time>
</trkpt>
<trkpt lat="32.6054625" lon="35.3805246">
<ele>135.000000</ele>
<time>2010-01-01T00:24:15.000Z</time>
</trkpt>
<trkpt lat="32.6052361" lon="35.3805119">
<ele>135.000000</ele>
<time>2010-01-01T00:24:24.000Z</time>
</trkpt>
<trkpt lat="32.6049891" lon="35.3804933">
<ele>134.000000</ele>
<time>2010-01-01T00:24:34.000Z</time>
</trkpt>
<trkpt lat="32.6048105" lon="35.3806491">
<ele>136.000000</ele>
<time>2010-01-01T00:24:43.000Z</time>
</trkpt>
<trkpt lat="32.6046136" lon="35.3808666">
<ele>138.000000</ele>
<time>2010-01-01T00:24:53.000Z</time>
</trkpt>
<trkpt lat="32.6045076" lon="35.3811247">
<ele>138.000000</ele>
<time>2010-01-01T00:25:03.000Z</time>
</trkpt>
<trkpt lat="32.6045141" lon="35.3813439">
<ele>138.000000</ele>
<time>2010-01-01T00:25:10.000Z</time>
</trkpt>
<trkpt lat="32.6046462" lon="35.3815172">
<ele>139.000000</ele>
<time>2010-01-01T00:25:18.000Z</time>
</trkpt>
<trkpt lat="32.6048086" lon="35.3816545">
<ele>141.000000</ele>
<time>2010-01-01T00:25:26.000Z</time>
</trkpt>
<trkpt lat="32.6050051" lon="35.3818772">
<ele>143.000000</ele>
<time>2010-01-01T00:25:37.000Z</time>
</trkpt>
<trkpt lat="32.6051173" lon="35.3820606">
<ele>143.000000</ele>
<time>2010-01-01T00:25:45.000Z</time>
</trkpt>
<trkpt lat="32.6051934" lon="35.3822756">
<ele>143.000000</ele>
<time>2010-01-01T00:25:53.000Z</time>
</trkpt>
<trkpt lat="32.6053937" lon="35.3824629">
<ele>143.000000</ele>
<time>2010-01-01T00:26:03.000Z</time>
</trkpt>
<trkpt lat="32.6056243" lon="35.3825489">
<ele>144.000000</ele>
<time>2010-01-01T00:26:13.000Z</time>
</trkpt>
<trkpt lat="32.6057967" lon="35.3826268">
<ele>145.000000</ele>
<time>2010-01-01T00:26:20.000Z</time>
</trkpt>
<trkpt lat="32.6059884" lon="35.3827174">
<ele>146.000000</ele>
<time>2010-01-01T00:26:28.000Z</time>
</trkpt>
<trkpt lat="32.6061970" lon="35.3827794">
<ele>147.000000</ele>
<time>2010-01-01T00:26:37.000Z</time>
</trkpt>
<trkpt lat="32.6063984" lon="35.3828604">
<ele>146.000000</ele>
<time>2010-01-01T00:26:45.000Z</time>
</trkpt>
<trkpt lat="32.6066581" lon="35.3829173">
<ele>143.000000</ele>
<time>2010-01-01T00:26:56.000Z</time>
</trkpt>
<trkpt lat="32.6069003" lon="35.3829496">
<ele>143.000000</ele>
<time>2010-01-01T00:27:06.000Z</time>
</trkpt>
<trkpt lat="32.6071214" lon="35.3829540">
<ele>143.000000</ele>
<time>2010-01-01T00:27:15.000Z</time>
</trkpt>
<trkpt lat="32.6073188" lon="35.3829356">
<ele>143.000000</ele>
<time>2010-01-01T00:27:22.000Z</time>
</trkpt>
<trkpt lat="32.6074992" lon="35.3828942">
<ele>144.000000</ele>
<time>2010-01-01T00:27:30.000Z</time>
</trkpt>
<trkpt lat="32.6077086" lon="35.3828134">
<ele>144.000000</ele>
<time>2010-01-01T00:27:39.000Z</time>
</trkpt>
<trkpt lat="32.6078984" lon="35.3827278">
<ele>145.000000</ele>
<time>2010-01-01T00:27:47.000Z</time>
</trkpt>
<trkpt lat="32.6080637" lon="35.3826176">
<ele>147.000000</ele>
<time>2010-01-01T00:27:54.000Z</time>
</trkpt>
<trkpt lat="32.6082617" lon="35.3825458">
<ele>146.000000</ele>
<time>2010-01-01T00:28:03.000Z</time>
</trkpt>
<trkpt lat="32.6084288" lon="35.3824038">
<ele>146.000000</ele>
<time>2010-01-01T00:28:11.000Z</time>
</trkpt>
<trkpt lat="32.6086530" lon="35.3823723">
<ele>146.000000</ele>
<time>2010-01-01T00:28:20.000Z</time>
</trkpt>
<trkpt lat="32.6087998" lon="35.3822397">
<ele>148.000000</ele>
<time>2010-01-01T00:28:27.000Z</time>
</trkpt>
<trkpt lat="32.6087116" lon="35.3820022">
<ele>151.000000</ele>
<time>2010-01-01T00:28:36.000Z</time>
</trkpt>
<trkpt lat="32.6089038" lon="35.3819408">
<ele>153.000000</ele>
<time>2010-01-01T00:28:44.000Z</time>
</trkpt>
<trkpt lat="32.6091159" lon="35.3820166">
<ele>154.000000</ele>
<time>2010-01-01T00:28:53.000Z</time>
</trkpt>
<trkpt lat="32.6092769" lon="35.3821481">
<ele>153.000000</ele>
<time>2010-01-01T00:29:01.000Z</time>
</trkpt>
<trkpt lat="32.6094514" lon="35.3822323">
<ele>152.000000</ele>
<time>2010-01-01T00:29:08.000Z</time>
</trkpt>
<trkpt lat="32.6096671" lon="35.3823131">
<ele>154.000000</ele>
<time>2010-01-01T00:29:17.000Z</time>
</trkpt>
<trkpt lat="32.6098374" lon="35.3824453">
<ele>155.000000</ele>
<time>2010-01-01T00:29:25.000Z</time>
</trkpt>
<trkpt lat="32.6099835" lon="35.3825770">
<ele>155.000000</ele>
<time>2010-01-01T00:29:33.000Z</time>
</trkpt>
<trkpt lat="32.6101695" lon="35.3827547">
<ele>157.000000</ele>
<time>2010-01-01T00:29:42.000Z</time>
</trkpt>
<trkpt lat="32.6103101" lon="35.3828950">
<ele>158.000000</ele>
<time>2010-01-01T00:29:50.000Z</time>
</trkpt>
<trkpt lat="32.6104527" lon="35.3830461">
<ele>158.000000</ele>
<time>2010-01-01T00:29:57.000Z</time>
</trkpt>
<trkpt lat="32.6106017" lon="35.3831727">
<ele>159.000000</ele>
<time>2010-01-01T00:30:05.000Z</time>
</trkpt>
<trkpt lat="32.6108048" lon="35.3833686">
<ele>159.000000</ele>
<time>2010-01-01T00:30:15.000Z</time>
</trkpt>
<trkpt lat="32.6109220" lon="35.3835714">
<ele>160.000000</ele>
<time>2010-01-01T00:30:23.000Z</time>
</trkpt>
<trkpt lat="32.6109908" lon="35.3837756">
<ele>163.000000</ele>
<time>2010-01-01T00:30:31.000Z</time>
</trkpt>
<trkpt lat="32.6111726" lon="35.3837033">
<ele>168.000000</ele>
<time>2010-01-01T00:30:39.000Z</time>
</trkpt>
<trkpt lat="32.6111485" lon="35.3834636">
<ele>166.000000</ele>
<time>2010-01-01T00:30:47.000Z</time>
</trkpt>
<trkpt lat="32.6112987" lon="35.3836448">
<ele>171.000000</ele>
<time>2010-01-01T00:30:55.000Z</time>
</trkpt>
<trkpt lat="32.6114321" lon="35.3838514">
<ele>174.000000</ele>
<time>2010-01-01T00:31:04.000Z</time>
</trkpt>
<trkpt lat="32.6115314" lon="35.3840508">
<ele>174.000000</ele>
<time>2010-01-01T00:31:12.000Z</time>
</trkpt>
<trkpt lat="32.6116451" lon="35.3842195">
<ele>175.000000</ele>
<time>2010-01-01T00:31:19.000Z</time>
</trkpt>
<trkpt lat="32.6117821" lon="35.3843622">
<ele>175.999985</ele>
<time>2010-01-01T00:31:26.000Z</time>
</trkpt>
<trkpt lat="32.6119598" lon="35.3844344">
<ele>178.000000</ele>
<time>2010-01-01T00:31:34.000Z</time>
</trkpt>
<trkpt lat="32.6121436" lon="35.3844605">
<ele>178.000000</ele>
<time>2010-01-01T00:31:41.000Z</time>
</trkpt>
<trkpt lat="32.6123390" lon="35.3844932">
<ele>178.000000</ele>
<time>2010-01-01T00:31:49.000Z</time>
</trkpt>
<trkpt lat="32.6125302" lon="35.3845069">
<ele>179.000000</ele>
<time>2010-01-01T00:31:57.000Z</time>
</trkpt>
<trkpt lat="32.6127037" lon="35.3844309">
<ele>180.000015</ele>
<time>2010-01-01T00:32:04.000Z</time>
</trkpt>
<trkpt lat="32.6128898" lon="35.3843561">
<ele>181.000000</ele>
<time>2010-01-01T00:32:12.000Z</time>
</trkpt>
<trkpt lat="32.6130716" lon="35.3842453">
<ele>184.000000</ele>
<time>2010-01-01T00:32:20.000Z</time>
</trkpt>
<trkpt lat="32.6132868" lon="35.3841641">
<ele>186.000000</ele>
<time>2010-01-01T00:32:29.000Z</time>
</trkpt>
<trkpt lat="32.6134835" lon="35.3841498">
<ele>185.000000</ele>
<time>2010-01-01T00:32:37.000Z</time>
</trkpt>
<trkpt lat="32.6136565" lon="35.3840157">
<ele>187.000015</ele>
<time>2010-01-01T00:32:46.000Z</time>
</trkpt>
<trkpt lat="32.6138699" lon="35.3839888">
<ele>187.000015</ele>
<time>2010-01-01T00:32:54.000Z</time>
</trkpt>
<trkpt lat="32.6140737" lon="35.3840078">
<ele>188.000000</ele>
<time>2010-01-01T00:33:02.000Z</time>
</trkpt>
<trkpt lat="32.6142524" lon="35.3841126">
<ele>188.000000</ele>
<time>2010-01-01T00:33:10.000Z</time>
</trkpt>
<trkpt lat="32.6144143" lon="35.3842204">
<ele>188.000000</ele>
<time>2010-01-01T00:33:18.000Z</time>
</trkpt>
<trkpt lat="32.6145842" lon="35.3843473">
<ele>187.000015</ele>
<time>2010-01-01T00:33:26.000Z</time>
</trkpt>
<trkpt lat="32.6147284" lon="35.3844829">
<ele>185.000000</ele>
<time>2010-01-01T00:33:33.000Z</time>
</trkpt>
<trkpt lat="32.6149586" lon="35.3845316">
<ele>185.000000</ele>
<time>2010-01-01T00:33:42.000Z</time>
</trkpt>
<trkpt lat="32.6151980" lon="35.3845236">
<ele>186.000000</ele>
<time>2010-01-01T00:33:52.000Z</time>
</trkpt>
<trkpt lat="32.6154125" lon="35.3845052">
<ele>187.000015</ele>
<time>2010-01-01T00:34:01.000Z</time>
</trkpt>
<trkpt lat="32.6156270" lon="35.3844473">
<ele>188.000000</ele>
<time>2010-01-01T00:34:09.000Z</time>
</trkpt>
<trkpt lat="32.6158260" lon="35.3843257">
<ele>191.000000</ele>
<time>2010-01-01T00:34:18.000Z</time>
</trkpt>
<trkpt lat="32.6160635" lon="35.3843587">
<ele>191.000000</ele>
<time>2010-01-01T00:34:28.000Z</time>
</trkpt>
<trkpt lat="32.6162617" lon="35.3843724">
<ele>191.000000</ele>
<time>2010-01-01T00:34:36.000Z</time>
</trkpt>
<trkpt lat="32.6164982" lon="35.3843753">
<ele>192.000000</ele>
<time>2010-01-01T00:34:45.000Z</time>
</trkpt>
<trkpt lat="32.6167180" lon="35.3844010">
<ele>192.000000</ele>
<time>2010-01-01T00:34:54.000Z</time>
</trkpt>
<trkpt lat="32.6169372" lon="35.3844057">
<ele>191.000000</ele>
<time>2010-01-01T00:35:03.000Z</time>
</trkpt>
<trkpt lat="32.6171363" lon="35.3844559">
<ele>193.000000</ele>
<time>2010-01-01T00:35:11.000Z</time>
</trkpt>
<trkpt lat="32.6173691" lon="35.3844822">
<ele>195.000000</ele>
<time>2010-01-01T00:35:21.000Z</time>
</trkpt>
<trkpt lat="32.6175277" lon="35.3846257">
<ele>195.000000</ele>
<time>2010-01-01T00:35:29.000Z</time>
</trkpt>
<trkpt lat="32.6177511" lon="35.3846757">
<ele>197.000000</ele>
<time>2010-01-01T00:35:38.000Z</time>
</trkpt>
<trkpt lat="32.6178839" lon="35.3849255">
<ele>196.000000</ele>
<time>2010-01-01T00:35:48.000Z</time>
</trkpt>
<trkpt lat="32.6180592" lon="35.3850907">
<ele>199.000000</ele>
<time>2010-01-01T00:35:57.000Z</time>
</trkpt>
<trkpt lat="32.6182034" lon="35.3852789">
<ele>199.000000</ele>
<time>2010-01-01T00:36:05.000Z</time>
</trkpt>
<trkpt lat="32.6180995" lon="35.3854702">
<ele>199.000000</ele>
<time>2010-01-01T00:36:13.000Z</time>
</trkpt>
<trkpt lat="32.6179436" lon="35.3856430">
<ele>195.000000</ele>
<time>2010-01-01T00:36:21.000Z</time>
</trkpt>
<trkpt lat="32.6178488" lon="35.3858293">
<ele>193.999985</ele>
<time>2010-01-01T00:36:29.000Z</time>
</trkpt>
<trkpt lat="32.6176904" lon="35.3860524">
<ele>191.000000</ele>
<time>2010-01-01T00:36:39.000Z</time>
</trkpt>
<trkpt lat="32.6175811" lon="35.3862281">
<ele>191.000000</ele>
<time>2010-01-01T00:36:46.000Z</time>
</trkpt>
<trkpt lat="32.6174127" lon="35.3863860">
<ele>189.000000</ele>
<time>2010-01-01T00:36:54.000Z</time>
</trkpt>
<trkpt lat="32.6172757" lon="35.3865839">
<ele>188.000000</ele>
<time>2010-01-01T00:37:03.000Z</time>
</trkpt>
<trkpt lat="32.6171730" lon="35.3868068">
<ele>188.000000</ele>
<time>2010-01-01T00:37:12.000Z</time>
</trkpt>
<trkpt lat="32.6171140" lon="35.3870276">
<ele>188.000000</ele>
<time>2010-01-01T00:37:19.000Z</time>
</trkpt>
<trkpt lat="32.6170410" lon="35.3872557">
<ele>186.000000</ele>
<time>2010-01-01T00:37:28.000Z</time>
</trkpt>
<trkpt lat="32.6171284" lon="35.3874808">
<ele>186.000000</ele>
<time>2010-01-01T00:37:36.000Z</time>
</trkpt>
<trkpt lat="32.6172443" lon="35.3876506">
<ele>186.000000</ele>
<time>2010-01-01T00:37:43.000Z</time>
</trkpt>
<trkpt lat="32.6174452" lon="35.3877172">
<ele>187.000015</ele>
<time>2010-01-01T00:37:52.000Z</time>
</trkpt>
<trkpt lat="32.6176610" lon="35.3877473">
<ele>189.000000</ele>
<time>2010-01-01T00:38:00.000Z</time>
</trkpt>
<trkpt lat="32.6175861" lon="35.3875350">
<ele>193.000000</ele>
<time>2010-01-01T00:38:08.000Z</time>
</trkpt>
<trkpt lat="32.6175365" lon="35.3872969">
<ele>196.000000</ele>
<time>2010-01-01T00:38:17.000Z</time>
</trkpt>
<trkpt lat="32.6177240" lon="35.3871905">
<ele>200.999985</ele>
<time>2010-01-01T00:38:25.000Z</time>
</trkpt>
<trkpt lat="32.6176800" lon="35.3869515">
<ele>203.000000</ele>
<time>2010-01-01T00:38:33.000Z</time>
</trkpt>
<trkpt lat="32.6177628" lon="35.3867424">
<ele>204.000000</ele>
<time>2010-01-01T00:38:41.000Z</time>
</trkpt>
<trkpt lat="32.6178824" lon="35.3865529">
<ele>204.000000</ele>
<time>2010-01-01T00:38:49.000Z</time>
</trkpt>
<trkpt lat="32.6180241" lon="35.3863441">
<ele>205.000015</ele>
<time>2010-01-01T00:38:58.000Z</time>
</trkpt>
<trkpt lat="32.6181992" lon="35.3861982">
<ele>207.000000</ele>
<time>2010-01-01T00:39:06.000Z</time>
</trkpt>
<trkpt lat="32.6183492" lon="35.3860511">
<ele>207.999985</ele>
<time>2010-01-01T00:39:14.000Z</time>
</trkpt>
<trkpt lat="32.6184459" lon="35.3857876">
<ele>207.999985</ele>
<time>2010-01-01T00:39:24.000Z</time>
</trkpt>
<trkpt lat="32.6185650" lon="35.3856072">
<ele>209.000000</ele>
<time>2010-01-01T00:39:32.000Z</time>
</trkpt>
<trkpt lat="32.6186991" lon="35.3854488">
<ele>211.000000</ele>
<time>2010-01-01T00:39:39.000Z</time>
</trkpt>
<trkpt lat="32.6188296" lon="35.3853011">
<ele>215.000000</ele>
<time>2010-01-01T00:39:46.000Z</time>
</trkpt>
<trkpt lat="32.6187783" lon="35.3850598">
<ele>214.000000</ele>
<time>2010-01-01T00:39:55.000Z</time>
</trkpt>
<trkpt lat="32.6186328" lon="35.3849163">
<ele>212.000015</ele>
<time>2010-01-01T00:40:02.000Z</time>
</trkpt>
<trkpt lat="32.6185135" lon="35.3847361">
<ele>214.000000</ele>
<time>2010-01-01T00:40:10.000Z</time>
</trkpt>
<trkpt lat="32.6183942" lon="35.3845153">
<ele>214.000000</ele>
<time>2010-01-01T00:40:19.000Z</time>
</trkpt>
<trkpt lat="32.6183457" lon="35.3842778">
<ele>216.000000</ele>
<time>2010-01-01T00:40:27.000Z</time>
</trkpt>
<trkpt lat="32.6182872" lon="35.3840731">
<ele>216.000000</ele>
<time>2010-01-01T00:40:35.000Z</time>
</trkpt>
<trkpt lat="32.6181558" lon="35.3838720">
<ele>215.000000</ele>
<time>2010-01-01T00:40:43.000Z</time>
</trkpt>
<trkpt lat="32.6179277" lon="35.3838224">
<ele>213.000000</ele>
<time>2010-01-01T00:40:52.000Z</time>
</trkpt>
<trkpt lat="32.6176930" lon="35.3837267">
<ele>214.000000</ele>
<time>2010-01-01T00:41:02.000Z</time>
</trkpt>
<trkpt lat="32.6174814" lon="35.3835794">
<ele>217.000000</ele>
<time>2010-01-01T00:41:12.000Z</time>
</trkpt>
<trkpt lat="32.6172617" lon="35.3834879">
<ele>218.000000</ele>
<time>2010-01-01T00:41:21.000Z</time>
</trkpt>
<trkpt lat="32.6170352" lon="35.3834104">
<ele>219.000015</ele>
<time>2010-01-01T00:41:31.000Z</time>
</trkpt>
<trkpt lat="32.6168519" lon="35.3833021">
<ele>220.000000</ele>
<time>2010-01-01T00:41:39.000Z</time>
</trkpt>
<trkpt lat="32.6166376" lon="35.3832533">
<ele>219.000015</ele>
<time>2010-01-01T00:41:48.000Z</time>
</trkpt>
<trkpt lat="32.6164556" lon="35.3831696">
<ele>220.000000</ele>
<time>2010-01-01T00:41:56.000Z</time>
</trkpt>
<trkpt lat="32.6162826" lon="35.3830704">
<ele>220.000000</ele>
<time>2010-01-01T00:42:03.000Z</time>
</trkpt>
<trkpt lat="32.6161022" lon="35.3830019">
<ele>221.000000</ele>
<time>2010-01-01T00:42:11.000Z</time>
</trkpt>
<trkpt lat="32.6159289" lon="35.3828960">
<ele>222.000000</ele>
<time>2010-01-01T00:42:19.000Z</time>
</trkpt>
<trkpt lat="32.6157660" lon="35.3827714">
<ele>223.000000</ele>
<time>2010-01-01T00:42:26.000Z</time>
</trkpt>
<trkpt lat="32.6156124" lon="35.3826469">
<ele>223.000000</ele>
<time>2010-01-01T00:42:34.000Z</time>
</trkpt>
<trkpt lat="32.6154269" lon="35.3825186">
<ele>224.000000</ele>
<time>2010-01-01T00:42:43.000Z</time>
</trkpt>
<trkpt lat="32.6154540" lon="35.3822931">
<ele>229.000000</ele>
<time>2010-01-01T00:42:50.000Z</time>
</trkpt>
<trkpt lat="32.6152653" lon="35.3821778">
<ele>228.000000</ele>
<time>2010-01-01T00:42:59.000Z</time>
</trkpt>
<trkpt lat="32.6151398" lon="35.3819689">
<ele>228.000000</ele>
<time>2010-01-01T00:43:07.000Z</time>
</trkpt>
<trkpt lat="32.6150104" lon="35.3817826">
<ele>228.000000</ele>
<time>2010-01-01T00:43:15.000Z</time>
</trkpt>
<trkpt lat="32.6148790" lon="35.3815786">
<ele>229.000000</ele>
<time>2010-01-01T00:43:24.000Z</time>
</trkpt>
<trkpt lat="32.6147462" lon="35.3813258">
<ele>230.000000</ele>
<time>2010-01-01T00:43:34.000Z</time>
</trkpt>
<trkpt lat="32.6146932" lon="35.3810452">
<ele>232.000000</ele>
<time>2010-01-01T00:43:44.000Z</time>
</trkpt>
<trkpt lat="32.6147674" lon="35.3808345">
<ele>234.000000</ele>
<time>2010-01-01T00:43:52.000Z</time>
</trkpt>
<trkpt lat="32.6148968" lon="35.3806606">
<ele>236.000000</ele>
<time>2010-01-01T00:43:59.000Z</time>
</trkpt>
<trkpt lat="32.6150029" lon="35.3804878">
<ele>237.000015</ele>
<time>2010-01-01T00:44:07.000Z</time>
</trkpt>
<trkpt lat="32.6151033" lon="35.3803075">
<ele>238.000000</ele>
<time>2010-01-01T00:44:14.000Z</time>
</trkpt>
<trkpt lat="32.6152267" lon="35.3801136">
<ele>237.000015</ele>
<time>2010-01-01T00:44:22.000Z</time>
</trkpt>
<trkpt lat="32.6153507" lon="35.3799463">
<ele>238.000000</ele>
<time>2010-01-01T00:44:30.000Z</time>
</trkpt>
<trkpt lat="32.6154632" lon="35.3797788">
<ele>240.000000</ele>
<time>2010-01-01T00:44:37.000Z</time>
</trkpt>
<trkpt lat="32.6155464" lon="35.3795878">
<ele>240.000000</ele>
<time>2010-01-01T00:44:44.000Z</time>
</trkpt>
<trkpt lat="32.6156483" lon="35.3793505">
<ele>243.000000</ele>
<time>2010-01-01T00:44:53.000Z</time>
</trkpt>
<trkpt lat="32.6157396" lon="35.3791515">
<ele>244.000015</ele>
<time>2010-01-01T00:45:01.000Z</time>
</trkpt>
<trkpt lat="32.6158107" lon="35.3789169">
<ele>243.000000</ele>
<time>2010-01-01T00:45:09.000Z</time>
</trkpt>
<trkpt lat="32.6158391" lon="35.3786098">
<ele>243.000000</ele>
<time>2010-01-01T00:45:20.000Z</time>
</trkpt>
<trkpt lat="32.6158853" lon="35.3783420">
<ele>243.000000</ele>
<time>2010-01-01T00:45:29.000Z</time>
</trkpt>
<trkpt lat="32.6159562" lon="35.3781240">
<ele>243.000000</ele>
<time>2010-01-01T00:45:37.000Z</time>
</trkpt>
<trkpt lat="32.6160539" lon="35.3779059">
<ele>245.000000</ele>
<time>2010-01-01T00:45:45.000Z</time>
</trkpt>
<trkpt lat="32.6161839" lon="35.3777517">
<ele>247.000000</ele>
<time>2010-01-01T00:45:52.000Z</time>
</trkpt>
<trkpt lat="32.6161565" lon="35.3775210">
<ele>247.000000</ele>
<time>2010-01-01T00:46:00.000Z</time>
</trkpt>
<trkpt lat="32.6163465" lon="35.3776254">
<ele>250.000000</ele>
<time>2010-01-01T00:46:09.000Z</time>
</trkpt>
<trkpt lat="32.6163943" lon="35.3778381">
<ele>250.000000</ele>
<time>2010-01-01T00:46:16.000Z</time>
</trkpt>
<trkpt lat="32.6164890" lon="35.3776309">
<ele>252.000000</ele>
<time>2010-01-01T00:46:24.000Z</time>
</trkpt>
<trkpt lat="32.6164158" lon="35.3773919">
<ele>253.000000</ele>
<time>2010-01-01T00:46:32.000Z</time>
</trkpt>
<trkpt lat="32.6163164" lon="35.3771578">
<ele>253.000000</ele>
<time>2010-01-01T00:46:41.000Z</time>
</trkpt>
<trkpt lat="32.6163307" lon="35.3769338">
<ele>255.000000</ele>
<time>2010-01-01T00:46:49.000Z</time>
</trkpt>
<trkpt lat="32.6164172" lon="35.3767441">
<ele>257.000000</ele>
<time>2010-01-01T00:46:56.000Z</time>
</trkpt>
<trkpt lat="32.6165206" lon="35.3765366">
<ele>262.000000</ele>
<time>2010-01-01T00:47:04.000Z</time>
</trkpt>
<trkpt lat="32.6167147" lon="35.3764413">
<ele>265.000000</ele>
<time>2010-01-01T00:47:13.000Z</time>
</trkpt>
<trkpt lat="32.6168121" lon="35.3762411">
<ele>266.000000</ele>
<time>2010-01-01T00:47:21.000Z</time>
</trkpt>
<trkpt lat="32.6169054" lon="35.3760503">
<ele>267.000000</ele>
<time>2010-01-01T00:47:28.000Z</time>
</trkpt>
<trkpt lat="32.6169930" lon="35.3758501">
<ele>267.000000</ele>
<time>2010-01-01T00:47:36.000Z</time>
</trkpt>
<trkpt lat="32.6171223" lon="35.3756420">
<ele>268.000000</ele>
<time>2010-01-01T00:47:44.000Z</time>
</trkpt>
<trkpt lat="32.6172560" lon="35.3754448">
<ele>269.000000</ele>
<time>2010-01-01T00:47:53.000Z</time>
</trkpt>
<trkpt lat="32.6173119" lon="35.3752255">
<ele>273.000000</ele>
<time>2010-01-01T00:48:01.000Z</time>
</trkpt>
<trkpt lat="32.6173939" lon="35.3750145">
<ele>276.000000</ele>
<time>2010-01-01T00:48:08.000Z</time>
</trkpt>
<trkpt lat="32.6174848" lon="35.3748195">
<ele>278.000000</ele>
<time>2010-01-01T00:48:16.000Z</time>
</trkpt>
<trkpt lat="32.6175962" lon="35.3746368">
<ele>280.000000</ele>
<time>2010-01-01T00:48:23.000Z</time>
</trkpt>
<trkpt lat="32.6176949" lon="35.3744268">
<ele>281.000000</ele>
<time>2010-01-01T00:48:32.000Z</time>
</trkpt>
<trkpt lat="32.6178448" lon="35.3742502">
<ele>282.000000</ele>
<time>2010-01-01T00:48:40.000Z</time>
</trkpt>
<trkpt lat="32.6179734" lon="35.3740829">
<ele>283.000000</ele>
<time>2010-01-01T00:48:48.000Z</time>
</trkpt>
<trkpt lat="32.6181036" lon="35.3739180">
<ele>284.000000</ele>
<time>2010-01-01T00:48:55.000Z</time>
</trkpt>
<trkpt lat="32.6182680" lon="35.3737198">
<ele>287.000000</ele>
<time>2010-01-01T00:49:05.000Z</time>
</trkpt>
<trkpt lat="32.6183993" lon="35.3735202">
<ele>288.000000</ele>
<time>2010-01-01T00:49:13.000Z</time>
</trkpt>
<trkpt lat="32.6185308" lon="35.3733261">
<ele>288.000000</ele>
<time>2010-01-01T00:49:22.000Z</time>
</trkpt>
<trkpt lat="32.6186415" lon="35.3731328">
<ele>290.000000</ele>
<time>2010-01-01T00:49:30.000Z</time>
</trkpt>
<trkpt lat="32.6187232" lon="35.3729388">
<ele>293.000000</ele>
<time>2010-01-01T00:49:37.000Z</time>
</trkpt>
<trkpt lat="32.6188596" lon="35.3727557">
<ele>292.000000</ele>
<time>2010-01-01T00:49:45.000Z</time>
</trkpt>
<trkpt lat="32.6189790" lon="35.3725741">
<ele>294.000000</ele>
<time>2010-01-01T00:49:53.000Z</time>
</trkpt>
<trkpt lat="32.6190948" lon="35.3723526">
<ele>297.000000</ele>
<time>2010-01-01T00:50:02.000Z</time>
</trkpt>
<trkpt lat="32.6191862" lon="35.3721378">
<ele>299.000000</ele>
<time>2010-01-01T00:50:10.000Z</time>
</trkpt>
<trkpt lat="32.6193654" lon="35.3719696">
<ele>299.000000</ele>
<time>2010-01-01T00:50:19.000Z</time>
</trkpt>
<trkpt lat="32.6194480" lon="35.3717739">
<ele>302.000000</ele>
<time>2010-01-01T00:50:26.000Z</time>
</trkpt>
<trkpt lat="32.6195881" lon="35.3716194">
<ele>302.000000</ele>
<time>2010-01-01T00:50:34.000Z</time>
</trkpt>
<trkpt lat="32.6197195" lon="35.3714551">
<ele>303.000000</ele>
<time>2010-01-01T00:50:42.000Z</time>
</trkpt>
<trkpt lat="32.6198401" lon="35.3712940">
<ele>306.000000</ele>
<time>2010-01-01T00:50:49.000Z</time>
</trkpt>
<trkpt lat="32.6199875" lon="35.3711387">
<ele>305.000000</ele>
<time>2010-01-01T00:50:57.000Z</time>
</trkpt>
<trkpt lat="32.6201456" lon="35.3710112">
<ele>300.000000</ele>
<time>2010-01-01T00:51:04.000Z</time>
</trkpt>
<trkpt lat="32.6202794" lon="35.3708430">
<ele>295.000000</ele>
<time>2010-01-01T00:51:12.000Z</time>
</trkpt>
<trkpt lat="32.6204041" lon="35.3706742">
<ele>298.000000</ele>
<time>2010-01-01T00:51:20.000Z</time>
</trkpt>
<trkpt lat="32.6205313" lon="35.3705010">
<ele>301.000000</ele>
<time>2010-01-01T00:51:27.000Z</time>
</trkpt>
<trkpt lat="32.6207054" lon="35.3703286">
<ele>303.000000</ele>
<time>2010-01-01T00:51:37.000Z</time>
</trkpt>
<trkpt lat="32.6208216" lon="35.3701514">
<ele>304.000000</ele>
<time>2010-01-01T00:51:44.000Z</time>
</trkpt>
<trkpt lat="32.6210046" lon="35.3698902">
<ele>306.000000</ele>
<time>2010-01-01T00:51:56.000Z</time>
</trkpt>
<trkpt lat="32.6211568" lon="35.3697036">
<ele>308.000000</ele>
<time>2010-01-01T00:52:04.000Z</time>
</trkpt>
<trkpt lat="32.6211701" lon="35.3694638">
<ele>312.999969</ele>
<time>2010-01-01T00:52:12.000Z</time>
</trkpt>
<trkpt lat="32.6212324" lon="35.3692628">
<ele>312.999969</ele>
<time>2010-01-01T00:52:20.000Z</time>
</trkpt>
<trkpt lat="32.6213876" lon="35.3691184">
<ele>310.000000</ele>
<time>2010-01-01T00:52:28.000Z</time>
</trkpt>
<trkpt lat="32.6215152" lon="35.3689351">
<ele>312.999969</ele>
<time>2010-01-01T00:52:36.000Z</time>
</trkpt>
<trkpt lat="32.6215985" lon="35.3687423">
<ele>320.000000</ele>
<time>2010-01-01T00:52:43.000Z</time>
</trkpt>
<trkpt lat="32.6217424" lon="35.3685876">
<ele>323.999969</ele>
<time>2010-01-01T00:52:51.000Z</time>
</trkpt>
<trkpt lat="32.6218984" lon="35.3684444">
<ele>323.999969</ele>
<time>2010-01-01T00:52:59.000Z</time>
</trkpt>
<trkpt lat="32.6220567" lon="35.3683006">
<ele>323.000000</ele>
<time>2010-01-01T00:53:07.000Z</time>
</trkpt>
<trkpt lat="32.6221525" lon="35.3680852">
<ele>323.000000</ele>
<time>2010-01-01T00:53:15.000Z</time>
</trkpt>
<trkpt lat="32.6222885" lon="35.3679009">
<ele>325.000000</ele>
<time>2010-01-01T00:53:23.000Z</time>
</trkpt>
<trkpt lat="32.6221049" lon="35.3679206">
<ele>326.000000</ele>
<time>2010-01-01T00:53:30.000Z</time>
</trkpt>
<trkpt lat="32.6222095" lon="35.3677156">
<ele>330.000000</ele>
<time>2010-01-01T00:53:38.000Z</time>
</trkpt>
<trkpt lat="32.6223645" lon="35.3675963">
<ele>332.000000</ele>
<time>2010-01-01T00:53:46.000Z</time>
</trkpt>
<trkpt lat="32.6225038" lon="35.3674124">
<ele>336.000000</ele>
<time>2010-01-01T00:53:54.000Z</time>
</trkpt>
<trkpt lat="32.6226058" lon="35.3672344">
<ele>337.999969</ele>
<time>2010-01-01T00:54:01.000Z</time>
</trkpt>
<trkpt lat="32.6227445" lon="35.3670371">
<ele>337.000000</ele>
<time>2010-01-01T00:54:10.000Z</time>
</trkpt>
<trkpt lat="32.6229179" lon="35.3669328">
<ele>335.000031</ele>
<time>2010-01-01T00:54:18.000Z</time>
</trkpt>
<trkpt lat="32.6231082" lon="35.3669330">
<ele>331.000000</ele>
<time>2010-01-01T00:54:26.000Z</time>
</trkpt>
<trkpt lat="32.6230835" lon="35.3666961">
<ele>334.000000</ele>
<time>2010-01-01T00:54:34.000Z</time>
</trkpt>
<trkpt lat="32.6231633" lon="35.3664782">
<ele>336.000000</ele>
<time>2010-01-01T00:54:42.000Z</time>
</trkpt>
<trkpt lat="32.6232686" lon="35.3662957">
<ele>336.000000</ele>
<time>2010-01-01T00:54:49.000Z</time>
</trkpt>
<trkpt lat="32.6233691" lon="35.3661149">
<ele>337.000000</ele>
<time>2010-01-01T00:54:56.000Z</time>
</trkpt>
<trkpt lat="32.6234634" lon="35.3658797">
<ele>341.000000</ele>
<time>2010-01-01T00:55:05.000Z</time>
</trkpt>
<trkpt lat="32.6235511" lon="35.3656670">
<ele>342.000000</ele>
<time>2010-01-01T00:55:13.000Z</time>
</trkpt>
<trkpt lat="32.6236248" lon="35.3654477">
<ele>345.000000</ele>
<time>2010-01-01T00:55:21.000Z</time>
</trkpt>
<trkpt lat="32.6237233" lon="35.3652554">
<ele>346.000031</ele>
<time>2010-01-01T00:55:29.000Z</time>
</trkpt>
<trkpt lat="32.6238255" lon="35.3650347">
<ele>344.000000</ele>
<time>2010-01-01T00:55:37.000Z</time>
</trkpt>
<trkpt lat="32.6238714" lon="35.3648281">
<ele>343.000000</ele>
<time>2010-01-01T00:55:44.000Z</time>
</trkpt>
<trkpt lat="32.6239124" lon="35.3645886">
<ele>341.000000</ele>
<time>2010-01-01T00:55:53.000Z</time>
</trkpt>
<trkpt lat="32.6239786" lon="35.3643358">
<ele>341.000000</ele>
<time>2010-01-01T00:56:02.000Z</time>
</trkpt>
<trkpt lat="32.6240291" lon="35.3640989">
<ele>343.000000</ele>
<time>2010-01-01T00:56:10.000Z</time>
</trkpt>
<trkpt lat="32.6241457" lon="35.3638816">
<ele>341.000000</ele>
<time>2010-01-01T00:56:18.000Z</time>
</trkpt>
<trkpt lat="32.6242244" lon="35.3636693">
<ele>339.000000</ele>
<time>2010-01-01T00:56:26.000Z</time>
</trkpt>
<trkpt lat="32.6241378" lon="35.3634558">
<ele>344.000000</ele>
<time>2010-01-01T00:56:34.000Z</time>
</trkpt>
<trkpt lat="32.6241615" lon="35.3632163">
<ele>345.000000</ele>
<time>2010-01-01T00:56:42.000Z</time>
</trkpt>
<trkpt lat="32.6241235" lon="35.3629516">
<ele>348.000000</ele>
<time>2010-01-01T00:56:51.000Z</time>
</trkpt>
<trkpt lat="32.6240996" lon="35.3626747">
<ele>348.000000</ele>
<time>2010-01-01T00:57:01.000Z</time>
</trkpt>
<trkpt lat="32.6240494" lon="35.3624006">
<ele>346.000031</ele>
<time>2010-01-01T00:57:10.000Z</time>
</trkpt>
<trkpt lat="32.6238998" lon="35.3622408">
<ele>347.000000</ele>
<time>2010-01-01T00:57:18.000Z</time>
</trkpt>
<trkpt lat="32.6237606" lon="35.3620324">
<ele>351.000000</ele>
<time>2010-01-01T00:57:27.000Z</time>
</trkpt>
<trkpt lat="32.6235543" lon="35.3619380">
<ele>356.000000</ele>
<time>2010-01-01T00:57:36.000Z</time>
</trkpt>
<trkpt lat="32.6234481" lon="35.3617527">
<ele>357.000000</ele>
<time>2010-01-01T00:57:44.000Z</time>
</trkpt>
<trkpt lat="32.6233485" lon="35.3615615">
<ele>358.000000</ele>
<time>2010-01-01T00:57:51.000Z</time>
</trkpt>
<trkpt lat="32.6231942" lon="35.3613596">
<ele>359.000000</ele>
<time>2010-01-01T00:58:00.000Z</time>
</trkpt>
<trkpt lat="32.6230287" lon="35.3612163">
<ele>364.000000</ele>
<time>2010-01-01T00:58:09.000Z</time>
</trkpt>
<trkpt lat="32.6228585" lon="35.3610932">
<ele>368.000000</ele>
<time>2010-01-01T00:58:17.000Z</time>
</trkpt>
<trkpt lat="32.6229801" lon="35.3612841">
<ele>366.000000</ele>
<time>2010-01-01T00:58:25.000Z</time>
</trkpt>
<trkpt lat="32.6231153" lon="35.3614938">
<ele>362.999969</ele>
<time>2010-01-01T00:58:34.000Z</time>
</trkpt>
<trkpt lat="32.6232373" lon="35.3617108">
<ele>362.000000</ele>
<time>2010-01-01T00:58:42.000Z</time>
</trkpt>
<trkpt lat="32.6232522" lon="35.3619621">
<ele>364.000000</ele>
<time>2010-01-01T00:58:51.000Z</time>
</trkpt>
<trkpt lat="32.6232891" lon="35.3621915">
<ele>362.999969</ele>
<time>2010-01-01T00:58:59.000Z</time>
</trkpt>
<trkpt lat="32.6233139" lon="35.3624255">
<ele>364.000000</ele>
<time>2010-01-01T00:59:07.000Z</time>
</trkpt>
<trkpt lat="32.6233965" lon="35.3626699">
<ele>365.000000</ele>
<time>2010-01-01T00:59:16.000Z</time>
</trkpt>
<trkpt lat="32.6235177" lon="35.3628988">
<ele>366.000000</ele>
<time>2010-01-01T00:59:25.000Z</time>
</trkpt>
<trkpt lat="32.6234472" lon="35.3631195">
<ele>368.000000</ele>
<time>2010-01-01T00:59:33.000Z</time>
</trkpt>
<trkpt lat="32.6233984" lon="35.3633422">
<ele>370.000000</ele>
<time>2010-01-01T00:59:40.000Z</time>
</trkpt>
<trkpt lat="32.6233196" lon="35.3631140">
<ele>371.000000</ele>
<time>2010-01-01T00:59:49.000Z</time>
</trkpt>
<trkpt lat="32.6232548" lon="35.3629048">
<ele>371.000000</ele>
<time>2010-01-01T00:59:56.000Z</time>
</trkpt>
<trkpt lat="32.6231154" lon="35.3626680">
<ele>372.000000</ele>
<time>2010-01-01T01:00:06.000Z</time>
</trkpt>
<trkpt lat="32.6230245" lon="35.3624461">
<ele>374.000031</ele>
<time>2010-01-01T01:00:14.000Z</time>
</trkpt>
<trkpt lat="32.6230100" lon="35.3622318">
<ele>373.000000</ele>
<time>2010-01-01T01:00:22.000Z</time>
</trkpt>
<trkpt lat="32.6229573" lon="35.3620015">
<ele>376.000000</ele>
<time>2010-01-01T01:00:30.000Z</time>
</trkpt>
<trkpt lat="32.6228320" lon="35.3617822">
<ele>379.000000</ele>
<time>2010-01-01T01:00:39.000Z</time>
</trkpt>
<trkpt lat="32.6226568" lon="35.3616085">
<ele>382.000000</ele>
<time>2010-01-01T01:00:48.000Z</time>
</trkpt>
<trkpt lat="32.6224875" lon="35.3614971">
<ele>383.000000</ele>
<time>2010-01-01T01:00:55.000Z</time>
</trkpt>
<trkpt lat="32.6223126" lon="35.3613909">
<ele>385.000031</ele>
<time>2010-01-01T01:01:03.000Z</time>
</trkpt>
<trkpt lat="32.6221384" lon="35.3612809">
<ele>387.000000</ele>
<time>2010-01-01T01:01:11.000Z</time>
</trkpt>
<trkpt lat="32.6219725" lon="35.3611943">
<ele>389.000000</ele>
<time>2010-01-01T01:01:18.000Z</time>
</trkpt>
<trkpt lat="32.6217945" lon="35.3611164">
<ele>392.000000</ele>
<time>2010-01-01T01:01:26.000Z</time>
</trkpt>
<trkpt lat="32.6219459" lon="35.3612562">
<ele>390.000000</ele>
<time>2010-01-01T01:01:34.000Z</time>
</trkpt>
<trkpt lat="32.6220815" lon="35.3614100">
<ele>389.000000</ele>
<time>2010-01-01T01:01:41.000Z</time>
</trkpt>
<trkpt lat="32.6218681" lon="35.3613924">
<ele>393.000000</ele>
<time>2010-01-01T01:01:50.000Z</time>
</trkpt>
<trkpt lat="32.6216948" lon="35.3612579">
<ele>396.000000</ele>
<time>2010-01-01T01:01:58.000Z</time>
</trkpt>
<trkpt lat="32.6214983" lon="35.3612102">
<ele>400.000000</ele>
<time>2010-01-01T01:02:06.000Z</time>
</trkpt>
<trkpt lat="32.6213584" lon="35.3610728">
<ele>404.000000</ele>
<time>2010-01-01T01:02:13.000Z</time>
</trkpt>
<trkpt lat="32.6213725" lon="35.3608523">
<ele>407.000000</ele>
<time>2010-01-01T01:02:21.000Z</time>
</trkpt>
<trkpt lat="32.6215366" lon="35.3607085">
<ele>407.000000</ele>
<time>2010-01-01T01:02:29.000Z</time>
</trkpt>
<trkpt lat="32.6213351" lon="35.3607109">
<ele>411.000000</ele>
<time>2010-01-01T01:02:37.000Z</time>
</trkpt>
<trkpt lat="32.6211868" lon="35.3608335">
<ele>411.000000</ele>
<time>2010-01-01T01:02:44.000Z</time>
</trkpt>
<trkpt lat="32.6210330" lon="35.3609541">
<ele>412.000000</ele>
<time>2010-01-01T01:02:52.000Z</time>
</trkpt>
<trkpt lat="32.6208567" lon="35.3610938">
<ele>414.000000</ele>
<time>2010-01-01T01:03:00.000Z</time>
</trkpt>
<trkpt lat="32.6206866" lon="35.3612626">
<ele>417.000000</ele>
<time>2010-01-01T01:03:09.000Z</time>
</trkpt>
<trkpt lat="32.6207645" lon="35.3614782">
<ele>415.999969</ele>
<time>2010-01-01T01:03:17.000Z</time>
</trkpt>
<trkpt lat="32.6209365" lon="35.3615569">
<ele>412.999969</ele>
<time>2010-01-01T01:03:24.000Z</time>
</trkpt>
<trkpt lat="32.6210691" lon="35.3617426">
<ele>412.999969</ele>
<time>2010-01-01T01:03:33.000Z</time>
</trkpt>
<trkpt lat="32.6212147" lon="35.3618722">
<ele>412.999969</ele>
<time>2010-01-01T01:03:40.000Z</time>
</trkpt>
<trkpt lat="32.6214173" lon="35.3619894">
<ele>412.999969</ele>
<time>2010-01-01T01:03:49.000Z</time>
</trkpt>
<trkpt lat="32.6216273" lon="35.3621054">
<ele>415.000000</ele>
<time>2010-01-01T01:03:58.000Z</time>
</trkpt>
<trkpt lat="32.6218048" lon="35.3622008">
<ele>415.000000</ele>
<time>2010-01-01T01:04:06.000Z</time>
</trkpt>
<trkpt lat="32.6219599" lon="35.3623282">
<ele>415.999969</ele>
<time>2010-01-01T01:04:13.000Z</time>
</trkpt>
<trkpt lat="32.6221259" lon="35.3624384">
<ele>412.999969</ele>
<time>2010-01-01T01:04:21.000Z</time>
</trkpt>
<trkpt lat="32.6222701" lon="35.3626158">
<ele>411.000000</ele>
<time>2010-01-01T01:04:29.000Z</time>
</trkpt>
<trkpt lat="32.6222730" lon="35.3628478">
<ele>412.999969</ele>
<time>2010-01-01T01:04:37.000Z</time>
</trkpt>
<trkpt lat="32.6221479" lon="35.3626767">
<ele>415.999969</ele>
<time>2010-01-01T01:04:45.000Z</time>
</trkpt>
<trkpt lat="32.6219893" lon="35.3625628">
<ele>420.000000</ele>
<time>2010-01-01T01:04:52.000Z</time>
</trkpt>
<trkpt lat="32.6217870" lon="35.3624580">
<ele>423.000000</ele>
<time>2010-01-01T01:05:01.000Z</time>
</trkpt>
<trkpt lat="32.6215914" lon="35.3623696">
<ele>423.000000</ele>
<time>2010-01-01T01:05:09.000Z</time>
</trkpt>
<trkpt lat="32.6214031" lon="35.3623105">
<ele>422.000000</ele>
<time>2010-01-01T01:05:17.000Z</time>
</trkpt>
<trkpt lat="32.6211977" lon="35.3622292">
<ele>421.000000</ele>
<time>2010-01-01T01:05:26.000Z</time>
</trkpt>
<trkpt lat="32.6209800" lon="35.3621161">
<ele>423.000000</ele>
<time>2010-01-01T01:05:35.000Z</time>
</trkpt>
<trkpt lat="32.6207701" lon="35.3620801">
<ele>426.999969</ele>
<time>2010-01-01T01:05:44.000Z</time>
</trkpt>
<trkpt lat="32.6205660" lon="35.3619335">
<ele>426.000000</ele>
<time>2010-01-01T01:05:54.000Z</time>
</trkpt>
<trkpt lat="32.6203199" lon="35.3618652">
<ele>428.000000</ele>
<time>2010-01-01T01:06:04.000Z</time>
</trkpt>
<trkpt lat="32.6201498" lon="35.3617886">
<ele>431.000000</ele>
<time>2010-01-01T01:06:11.000Z</time>
</trkpt>
<trkpt lat="32.6201437" lon="35.3615430">
<ele>430.000000</ele>
<time>2010-01-01T01:06:19.000Z</time>
</trkpt>
<trkpt lat="32.6202469" lon="35.3612897">
<ele>428.000000</ele>
<time>2010-01-01T01:06:29.000Z</time>
</trkpt>
<trkpt lat="32.6203713" lon="35.3610639">
<ele>426.999969</ele>
<time>2010-01-01T01:06:38.000Z</time>
</trkpt>
<trkpt lat="32.6205099" lon="35.3608509">
<ele>426.999969</ele>
<time>2010-01-01T01:06:47.000Z</time>
</trkpt>
<trkpt lat="32.6206431" lon="35.3606704">
<ele>428.000000</ele>
<time>2010-01-01T01:06:55.000Z</time>
</trkpt>
<trkpt lat="32.6208002" lon="35.3605018">
<ele>428.000000</ele>
<time>2010-01-01T01:07:03.000Z</time>
</trkpt>
<trkpt lat="32.6209738" lon="35.3604156">
<ele>426.000000</ele>
<time>2010-01-01T01:07:11.000Z</time>
</trkpt>
<trkpt lat="32.6211522" lon="35.3602342">
<ele>428.000000</ele>
<time>2010-01-01T01:07:20.000Z</time>
</trkpt>
<trkpt lat="32.6213339" lon="35.3600537">
<ele>429.000000</ele>
<time>2010-01-01T01:07:30.000Z</time>
</trkpt>
<trkpt lat="32.6214688" lon="35.3598930">
<ele>430.000000</ele>
<time>2010-01-01T01:07:37.000Z</time>
</trkpt>
<trkpt lat="32.6216049" lon="35.3597443">
<ele>430.000000</ele>
<time>2010-01-01T01:07:45.000Z</time>
</trkpt>
<trkpt lat="32.6217804" lon="35.3595630">
<ele>431.000000</ele>
<time>2010-01-01T01:07:54.000Z</time>
</trkpt>
<trkpt lat="32.6219294" lon="35.3594197">
<ele>433.000000</ele>
<time>2010-01-01T01:08:02.000Z</time>
</trkpt>
<trkpt lat="32.6220817" lon="35.3592320">
<ele>435.000031</ele>
<time>2010-01-01T01:08:11.000Z</time>
</trkpt>
<trkpt lat="32.6222012" lon="35.3590707">
<ele>435.000031</ele>
<time>2010-01-01T01:08:18.000Z</time>
</trkpt>
<trkpt lat="32.6223214" lon="35.3588794">
<ele>434.000000</ele>
<time>2010-01-01T01:08:26.000Z</time>
</trkpt>
<trkpt lat="32.6224005" lon="35.3586528">
<ele>433.000000</ele>
<time>2010-01-01T01:08:34.000Z</time>
</trkpt>
<trkpt lat="32.6224654" lon="35.3584120">
<ele>432.000000</ele>
<time>2010-01-01T01:08:43.000Z</time>
</trkpt>
<trkpt lat="32.6225171" lon="35.3581566">
<ele>429.000000</ele>
<time>2010-01-01T01:08:52.000Z</time>
</trkpt>
<trkpt lat="32.6224919" lon="35.3578685">
<ele>430.000000</ele>
<time>2010-01-01T01:09:01.000Z</time>
</trkpt>
<trkpt lat="32.6224255" lon="35.3576338">
<ele>431.000000</ele>
<time>2010-01-01T01:09:10.000Z</time>
</trkpt>
<trkpt lat="32.6223698" lon="35.3573473">
<ele>430.000000</ele>
<time>2010-01-01T01:09:20.000Z</time>
</trkpt>
<trkpt lat="32.6222736" lon="35.3570628">
<ele>430.000000</ele>
<time>2010-01-01T01:09:30.000Z</time>
</trkpt>
<trkpt lat="32.6221406" lon="35.3568706">
<ele>433.000000</ele>
<time>2010-01-01T01:09:38.000Z</time>
</trkpt>
<trkpt lat="32.6220514" lon="35.3566403">
<ele>434.000000</ele>
<time>2010-01-01T01:09:47.000Z</time>
</trkpt>
<trkpt lat="32.6219943" lon="35.3564192">
<ele>435.000031</ele>
<time>2010-01-01T01:09:55.000Z</time>
</trkpt>
<trkpt lat="32.6219499" lon="35.3561801">
<ele>434.000000</ele>
<time>2010-01-01T01:10:03.000Z</time>
</trkpt>
<trkpt lat="32.6218940" lon="35.3559716">
<ele>433.000000</ele>
<time>2010-01-01T01:10:10.000Z</time>
</trkpt>
<trkpt lat="32.6218081" lon="35.3557646">
<ele>433.000000</ele>
<time>2010-01-01T01:10:18.000Z</time>
</trkpt>
<trkpt lat="32.6217230" lon="35.3555381">
<ele>434.000000</ele>
<time>2010-01-01T01:10:26.000Z</time>
</trkpt>
<trkpt lat="32.6216880" lon="35.3552982">
<ele>435.000031</ele>
<time>2010-01-01T01:10:35.000Z</time>
</trkpt>
<trkpt lat="32.6217242" lon="35.3550623">
<ele>433.000000</ele>
<time>2010-01-01T01:10:43.000Z</time>
</trkpt>
<trkpt lat="32.6218375" lon="35.3548931">
<ele>432.000000</ele>
<time>2010-01-01T01:10:50.000Z</time>
</trkpt>
<trkpt lat="32.6220007" lon="35.3547282">
<ele>431.000000</ele>
<time>2010-01-01T01:10:59.000Z</time>
</trkpt>
<trkpt lat="32.6221344" lon="35.3545784">
<ele>432.000000</ele>
<time>2010-01-01T01:11:06.000Z</time>
</trkpt>
<trkpt lat="32.6222848" lon="35.3544338">
<ele>433.000000</ele>
<time>2010-01-01T01:11:14.000Z</time>
</trkpt>
<trkpt lat="32.6224708" lon="35.3543656">
<ele>434.000000</ele>
<time>2010-01-01T01:11:22.000Z</time>
</trkpt>
<trkpt lat="32.6226510" lon="35.3542892">
<ele>435.000031</ele>
<time>2010-01-01T01:11:29.000Z</time>
</trkpt>
<trkpt lat="32.6228340" lon="35.3542329">
<ele>436.000000</ele>
<time>2010-01-01T01:11:37.000Z</time>
</trkpt>
<trkpt lat="32.6230324" lon="35.3541730">
<ele>438.000031</ele>
<time>2010-01-01T01:11:45.000Z</time>
</trkpt>
<trkpt lat="32.6232312" lon="35.3541203">
<ele>440.000000</ele>
<time>2010-01-01T01:11:53.000Z</time>
</trkpt>
<trkpt lat="32.6234223" lon="35.3540191">
<ele>442.000000</ele>
<time>2010-01-01T01:12:01.000Z</time>
</trkpt>
<trkpt lat="32.6235604" lon="35.3538719">
<ele>442.000000</ele>
<time>2010-01-01T01:12:09.000Z</time>
</trkpt>
<trkpt lat="32.6236520" lon="35.3536805">
<ele>440.000000</ele>
<time>2010-01-01T01:12:16.000Z</time>
</trkpt>
<trkpt lat="32.6236734" lon="35.3534416">
<ele>439.000000</ele>
<time>2010-01-01T01:12:24.000Z</time>
</trkpt>
<trkpt lat="32.6237146" lon="35.3531990">
<ele>439.000000</ele>
<time>2010-01-01T01:12:33.000Z</time>
</trkpt>
<trkpt lat="32.6237178" lon="35.3529358">
<ele>443.000000</ele>
<time>2010-01-01T01:12:42.000Z</time>
</trkpt>
<trkpt lat="32.6237536" lon="35.3526833">
<ele>444.000000</ele>
<time>2010-01-01T01:12:50.000Z</time>
</trkpt>
<trkpt lat="32.6237931" lon="35.3524332">
<ele>440.999969</ele>
<time>2010-01-01T01:12:59.000Z</time>
</trkpt>
<trkpt lat="32.6238528" lon="35.3522040">
<ele>437.000000</ele>
<time>2010-01-01T01:13:07.000Z</time>
</trkpt>
<trkpt lat="32.6238718" lon="35.3519636">
<ele>438.000031</ele>
<time>2010-01-01T01:13:15.000Z</time>
</trkpt>
<trkpt lat="32.6238093" lon="35.3517306">
<ele>440.999969</ele>
<time>2010-01-01T01:13:23.000Z</time>
</trkpt>
<trkpt lat="32.6237239" lon="35.3514990">
<ele>440.999969</ele>
<time>2010-01-01T01:13:32.000Z</time>
</trkpt>
<trkpt lat="32.6236044" lon="35.3513384">
<ele>440.999969</ele>
<time>2010-01-01T01:13:39.000Z</time>
</trkpt>
<trkpt lat="32.6236054" lon="35.3515583">
<ele>445.000000</ele>
<time>2010-01-01T01:13:46.000Z</time>
</trkpt>
<trkpt lat="32.6235492" lon="35.3517794">
<ele>449.000031</ele>
<time>2010-01-01T01:13:54.000Z</time>
</trkpt>
<trkpt lat="32.6234742" lon="35.3520104">
<ele>451.999969</ele>
<time>2010-01-01T01:14:03.000Z</time>
</trkpt>
<trkpt lat="32.6233958" lon="35.3522224">
<ele>456.000000</ele>
<time>2010-01-01T01:14:10.000Z</time>
</trkpt>
<trkpt lat="32.6233516" lon="35.3524734">
<ele>459.000000</ele>
<time>2010-01-01T01:14:19.000Z</time>
</trkpt>
<trkpt lat="32.6232643" lon="35.3526808">
<ele>461.000000</ele>
<time>2010-01-01T01:14:27.000Z</time>
</trkpt>
<trkpt lat="32.6230910" lon="35.3528444">
<ele>464.000000</ele>
<time>2010-01-01T01:14:36.000Z</time>
</trkpt>
<trkpt lat="32.6228697" lon="35.3528804">
<ele>463.000031</ele>
<time>2010-01-01T01:14:45.000Z</time>
</trkpt>
<trkpt lat="32.6226272" lon="35.3529063">
<ele>462.000000</ele>
<time>2010-01-01T01:14:54.000Z</time>
</trkpt>
<trkpt lat="32.6224263" lon="35.3530217">
<ele>461.000000</ele>
<time>2010-01-01T01:15:03.000Z</time>
</trkpt>
<trkpt lat="32.6221838" lon="35.3529604">
<ele>460.000000</ele>
<time>2010-01-01T01:15:13.000Z</time>
</trkpt>
<trkpt lat="32.6219710" lon="35.3529578">
<ele>458.000000</ele>
<time>2010-01-01T01:15:22.000Z</time>
</trkpt>
<trkpt lat="32.6217809" lon="35.3529609">
<ele>457.000000</ele>
<time>2010-01-01T01:15:29.000Z</time>
</trkpt>
<trkpt lat="32.6215653" lon="35.3529821">
<ele>457.000000</ele>
<time>2010-01-01T01:15:38.000Z</time>
</trkpt>
<trkpt lat="32.6213580" lon="35.3529861">
<ele>459.000000</ele>
<time>2010-01-01T01:15:46.000Z</time>
</trkpt>
<trkpt lat="32.6211634" lon="35.3529967">
<ele>462.000000</ele>
<time>2010-01-01T01:15:54.000Z</time>
</trkpt>
<trkpt lat="32.6209688" lon="35.3530199">
<ele>464.000000</ele>
<time>2010-01-01T01:16:02.000Z</time>
</trkpt>
<trkpt lat="32.6207886" lon="35.3530237">
<ele>467.000000</ele>
<time>2010-01-01T01:16:09.000Z</time>
</trkpt>
<trkpt lat="32.6206013" lon="35.3529645">
<ele>469.000000</ele>
<time>2010-01-01T01:16:17.000Z</time>
</trkpt>
<trkpt lat="32.6204168" lon="35.3528743">
<ele>471.000000</ele>
<time>2010-01-01T01:16:25.000Z</time>
</trkpt>
<trkpt lat="32.6202285" lon="35.3527438">
<ele>471.000000</ele>
<time>2010-01-01T01:16:34.000Z</time>
</trkpt>
<trkpt lat="32.6200778" lon="35.3526080">
<ele>469.000000</ele>
<time>2010-01-01T01:16:41.000Z</time>
</trkpt>
<trkpt lat="32.6198831" lon="35.3524506">
<ele>468.000000</ele>
<time>2010-01-01T01:16:51.000Z</time>
</trkpt>
<trkpt lat="32.6196665" lon="35.3522776">
<ele>468.000000</ele>
<time>2010-01-01T01:17:01.000Z</time>
</trkpt>
<trkpt lat="32.6194755" lon="35.3521172">
<ele>468.000000</ele>
<time>2010-01-01T01:17:11.000Z</time>
</trkpt>
<trkpt lat="32.6193346" lon="35.3519226">
<ele>467.000000</ele>
<time>2010-01-01T01:17:19.000Z</time>
</trkpt>
<trkpt lat="32.6191733" lon="35.3517755">
<ele>469.000000</ele>
<time>2010-01-01T01:17:27.000Z</time>
</trkpt>
<trkpt lat="32.6189852" lon="35.3516559">
<ele>474.000031</ele>
<time>2010-01-01T01:17:36.000Z</time>
</trkpt>
<trkpt lat="32.6189367" lon="35.3514082">
<ele>476.999969</ele>
<time>2010-01-01T01:17:44.000Z</time>
</trkpt>
<trkpt lat="32.6189667" lon="35.3511715">
<ele>479.000000</ele>
<time>2010-01-01T01:17:53.000Z</time>
</trkpt>
<trkpt lat="32.6189755" lon="35.3509130">
<ele>480.000000</ele>
<time>2010-01-01T01:18:01.000Z</time>
</trkpt>
<trkpt lat="32.6189188" lon="35.3506823">
<ele>482.000000</ele>
<time>2010-01-01T01:18:09.000Z</time>
</trkpt>
<trkpt lat="32.6188831" lon="35.3504312">
<ele>483.000000</ele>
<time>2010-01-01T01:18:18.000Z</time>
</trkpt>
<trkpt lat="32.6188495" lon="35.3502178">
<ele>484.000000</ele>
<time>2010-01-01T01:18:25.000Z</time>
</trkpt>
<trkpt lat="32.6188283" lon="35.3500026">
<ele>484.000000</ele>
<time>2010-01-01T01:18:33.000Z</time>
</trkpt>
<trkpt lat="32.6187853" lon="35.3497663">
<ele>486.000000</ele>
<time>2010-01-01T01:18:41.000Z</time>
</trkpt>
<trkpt lat="32.6187886" lon="35.3494840">
<ele>487.000000</ele>
<time>2010-01-01T01:18:50.000Z</time>
</trkpt>
<trkpt lat="32.6187236" lon="35.3492567">
<ele>489.000000</ele>
<time>2010-01-01T01:18:58.000Z</time>
</trkpt>
<trkpt lat="32.6186926" lon="35.3490241">
<ele>489.000000</ele>
<time>2010-01-01T01:19:06.000Z</time>
</trkpt>
<trkpt lat="32.6186697" lon="35.3488073">
<ele>489.000000</ele>
<time>2010-01-01T01:19:14.000Z</time>
</trkpt>
<trkpt lat="32.6186429" lon="35.3485163">
<ele>489.000000</ele>
<time>2010-01-01T01:19:23.000Z</time>
</trkpt>
<trkpt lat="32.6185703" lon="35.3483136">
<ele>490.999969</ele>
<time>2010-01-01T01:19:31.000Z</time>
</trkpt>
<trkpt lat="32.6185081" lon="35.3480973">
<ele>492.000000</ele>
<time>2010-01-01T01:19:39.000Z</time>
</trkpt>
<trkpt lat="32.6184108" lon="35.3478511">
<ele>493.000000</ele>
<time>2010-01-01T01:19:48.000Z</time>
</trkpt>
<trkpt lat="32.6183283" lon="35.3476215">
<ele>493.000000</ele>
<time>2010-01-01T01:19:56.000Z</time>
</trkpt>
<trkpt lat="32.6183348" lon="35.3478444">
<ele>496.000000</ele>
<time>2010-01-01T01:20:04.000Z</time>
</trkpt>
<trkpt lat="32.6184104" lon="35.3481079">
<ele>496.000000</ele>
<time>2010-01-01T01:20:13.000Z</time>
</trkpt>
<trkpt lat="32.6184543" lon="35.3483239">
<ele>495.000000</ele>
<time>2010-01-01T01:20:21.000Z</time>
</trkpt>
<trkpt lat="32.6184294" lon="35.3485848">
<ele>495.000000</ele>
<time>2010-01-01T01:20:29.000Z</time>
</trkpt>
<trkpt lat="32.6183948" lon="35.3488447">
<ele>496.000000</ele>
<time>2010-01-01T01:20:38.000Z</time>
</trkpt>
<trkpt lat="32.6183444" lon="35.3490663">
<ele>498.000000</ele>
<time>2010-01-01T01:20:46.000Z</time>
</trkpt>
<trkpt lat="32.6183062" lon="35.3493182">
<ele>501.000000</ele>
<time>2010-01-01T01:20:55.000Z</time>
</trkpt>
<trkpt lat="32.6182732" lon="35.3495690">
<ele>501.000000</ele>
<time>2010-01-01T01:21:03.000Z</time>
</trkpt>
<trkpt lat="32.6182343" lon="35.3497943">
<ele>500.000000</ele>
<time>2010-01-01T01:21:11.000Z</time>
</trkpt>
<trkpt lat="32.6182184" lon="35.3500381">
<ele>498.000000</ele>
<time>2010-01-01T01:21:19.000Z</time>
</trkpt>
<trkpt lat="32.6180713" lon="35.3501708">
<ele>499.000031</ele>
<time>2010-01-01T01:21:27.000Z</time>
</trkpt>
<trkpt lat="32.6178872" lon="35.3501653">
<ele>501.999969</ele>
<time>2010-01-01T01:21:34.000Z</time>
</trkpt>
<trkpt lat="32.6176972" lon="35.3500585">
<ele>504.999969</ele>
<time>2010-01-01T01:21:42.000Z</time>
</trkpt>
<trkpt lat="32.6175197" lon="35.3499005">
<ele>507.000000</ele>
<time>2010-01-01T01:21:51.000Z</time>
</trkpt>
<trkpt lat="32.6173821" lon="35.3497224">
<ele>507.000000</ele>
<time>2010-01-01T01:21:59.000Z</time>
</trkpt>
<trkpt lat="32.6173610" lon="35.3494875">
<ele>509.000000</ele>
<time>2010-01-01T01:22:07.000Z</time>
</trkpt>
<trkpt lat="32.6173441" lon="35.3492656">
<ele>509.000000</ele>
<time>2010-01-01T01:22:15.000Z</time>
</trkpt>
<trkpt lat="32.6173564" lon="35.3490490">
<ele>509.000000</ele>
<time>2010-01-01T01:22:22.000Z</time>
</trkpt>
<trkpt lat="32.6174212" lon="35.3488429">
<ele>508.000000</ele>
<time>2010-01-01T01:22:30.000Z</time>
</trkpt>
<trkpt lat="32.6173378" lon="35.3490805">
<ele>509.000000</ele>
<time>2010-01-01T01:22:38.000Z</time>
</trkpt>
<trkpt lat="32.6173592" lon="35.3493985">
<ele>509.000000</ele>
<time>2010-01-01T01:22:49.000Z</time>
</trkpt>
<trkpt lat="32.6173876" lon="35.3496286">
<ele>508.000000</ele>
<time>2010-01-01T01:22:57.000Z</time>
</trkpt>
<trkpt lat="32.6171606" lon="35.3495648">
<ele>504.000000</ele>
<time>2010-01-01T01:23:06.000Z</time>
</trkpt>
<trkpt lat="32.6170996" lon="35.3493456">
<ele>504.000000</ele>
<time>2010-01-01T01:23:14.000Z</time>
</trkpt>
<trkpt lat="32.6170340" lon="35.3490850">
<ele>504.000000</ele>
<time>2010-01-01T01:23:23.000Z</time>
</trkpt>
<trkpt lat="32.6170361" lon="35.3487867">
<ele>503.000000</ele>
<time>2010-01-01T01:23:33.000Z</time>
</trkpt>
<trkpt lat="32.6170781" lon="35.3485469">
<ele>501.000000</ele>
<time>2010-01-01T01:23:42.000Z</time>
</trkpt>
<trkpt lat="32.6171218" lon="35.3482901">
<ele>499.000031</ele>
<time>2010-01-01T01:23:50.000Z</time>
</trkpt>
<trkpt lat="32.6172006" lon="35.3480007">
<ele>497.000000</ele>
<time>2010-01-01T01:24:01.000Z</time>
</trkpt>
<trkpt lat="32.6172973" lon="35.3478002">
<ele>497.000000</ele>
<time>2010-01-01T01:24:08.000Z</time>
</trkpt>
<trkpt lat="32.6174305" lon="35.3475703">
<ele>496.000000</ele>
<time>2010-01-01T01:24:18.000Z</time>
</trkpt>
<trkpt lat="32.6176374" lon="35.3473977">
<ele>495.000000</ele>
<time>2010-01-01T01:24:28.000Z</time>
</trkpt>
<trkpt lat="32.6178492" lon="35.3472393">
<ele>494.000000</ele>
<time>2010-01-01T01:24:38.000Z</time>
</trkpt>
<trkpt lat="32.6177672" lon="35.3469739">
<ele>490.999969</ele>
<time>2010-01-01T01:24:48.000Z</time>
</trkpt>
<trkpt lat="32.6175149" lon="35.3470287">
<ele>489.000000</ele>
<time>2010-01-01T01:24:58.000Z</time>
</trkpt>
<trkpt lat="32.6173583" lon="35.3471779">
<ele>488.000031</ele>
<time>2010-01-01T01:25:06.000Z</time>
</trkpt>
<trkpt lat="32.6171827" lon="35.3473782">
<ele>488.000031</ele>
<time>2010-01-01T01:25:16.000Z</time>
</trkpt>
<trkpt lat="32.6170444" lon="35.3475864">
<ele>488.000031</ele>
<time>2010-01-01T01:25:25.000Z</time>
</trkpt>
<trkpt lat="32.6168956" lon="35.3477581">
<ele>487.000000</ele>
<time>2010-01-01T01:25:33.000Z</time>
</trkpt>
<trkpt lat="32.6167481" lon="35.3480026">
<ele>486.000000</ele>
<time>2010-01-01T01:25:43.000Z</time>
</trkpt>
<trkpt lat="32.6166296" lon="35.3482658">
<ele>486.000000</ele>
<time>2010-01-01T01:25:53.000Z</time>
</trkpt>
<trkpt lat="32.6164826" lon="35.3484948">
<ele>484.000000</ele>
<time>2010-01-01T01:26:03.000Z</time>
</trkpt>
<trkpt lat="32.6163564" lon="35.3488081">
<ele>480.000000</ele>
<time>2010-01-01T01:26:14.000Z</time>
</trkpt>
<trkpt lat="32.6162242" lon="35.3490766">
<ele>476.000000</ele>
<time>2010-01-01T01:26:25.000Z</time>
</trkpt>
<trkpt lat="32.6161644" lon="35.3493092">
<ele>474.000031</ele>
<time>2010-01-01T01:26:33.000Z</time>
</trkpt>
<trkpt lat="32.6162028" lon="35.3496020">
<ele>473.000000</ele>
<time>2010-01-01T01:26:43.000Z</time>
</trkpt>
<trkpt lat="32.6162664" lon="35.3498549">
<ele>471.000000</ele>
<time>2010-01-01T01:26:52.000Z</time>
</trkpt>
<trkpt lat="32.6163659" lon="35.3501031">
<ele>470.000000</ele>
<time>2010-01-01T01:27:01.000Z</time>
</trkpt>
<trkpt lat="32.6164800" lon="35.3503379">
<ele>469.000000</ele>
<time>2010-01-01T01:27:10.000Z</time>
</trkpt>
<trkpt lat="32.6165938" lon="35.3505987">
<ele>468.000000</ele>
<time>2010-01-01T01:27:20.000Z</time>
</trkpt>
<trkpt lat="32.6167306" lon="35.3508516">
<ele>465.999969</ele>
<time>2010-01-01T01:27:30.000Z</time>
</trkpt>
<trkpt lat="32.6168932" lon="35.3510879">
<ele>463.000031</ele>
<time>2010-01-01T01:27:41.000Z</time>
</trkpt>
<trkpt lat="32.6170272" lon="35.3513095">
<ele>461.000000</ele>
<time>2010-01-01T01:27:50.000Z</time>
</trkpt>
<trkpt lat="32.6171987" lon="35.3515181">
<ele>458.000000</ele>
<time>2010-01-01T01:28:00.000Z</time>
</trkpt>
<trkpt lat="32.6173732" lon="35.3517259">
<ele>456.000000</ele>
<time>2010-01-01T01:28:10.000Z</time>
</trkpt>
<trkpt lat="32.6175524" lon="35.3518897">
<ele>457.000000</ele>
<time>2010-01-01T01:28:19.000Z</time>
</trkpt>
<trkpt lat="32.6177321" lon="35.3520480">
<ele>458.000000</ele>
<time>2010-01-01T01:28:28.000Z</time>
</trkpt>
<trkpt lat="32.6179162" lon="35.3522101">
<ele>458.000000</ele>
<time>2010-01-01T01:28:37.000Z</time>
</trkpt>
<trkpt lat="32.6180913" lon="35.3523640">
<ele>458.000000</ele>
<time>2010-01-01T01:28:46.000Z</time>
</trkpt>
<trkpt lat="32.6181743" lon="35.3526662">
<ele>455.000000</ele>
<time>2010-01-01T01:28:56.000Z</time>
</trkpt>
<trkpt lat="32.6181985" lon="35.3529714">
<ele>451.999969</ele>
<time>2010-01-01T01:29:07.000Z</time>
</trkpt>
<trkpt lat="32.6180882" lon="35.3532092">
<ele>449.000031</ele>
<time>2010-01-01T01:29:16.000Z</time>
</trkpt>
<trkpt lat="32.6179654" lon="35.3534854">
<ele>448.000000</ele>
<time>2010-01-01T01:29:26.000Z</time>
</trkpt>
<trkpt lat="32.6178118" lon="35.3537006">
<ele>447.000000</ele>
<time>2010-01-01T01:29:36.000Z</time>
</trkpt>
<trkpt lat="32.6176509" lon="35.3538828">
<ele>443.000000</ele>
<time>2010-01-01T01:29:45.000Z</time>
</trkpt>
<trkpt lat="32.6175034" lon="35.3541201">
<ele>443.000000</ele>
<time>2010-01-01T01:29:55.000Z</time>
</trkpt>
<trkpt lat="32.6173539" lon="35.3543198">
<ele>440.999969</ele>
<time>2010-01-01T01:30:04.000Z</time>
</trkpt>
<trkpt lat="32.6172540" lon="35.3545101">
<ele>440.999969</ele>
<time>2010-01-01T01:30:11.000Z</time>
</trkpt>
<trkpt lat="32.6171348" lon="35.3546889">
<ele>442.000000</ele>
<time>2010-01-01T01:30:19.000Z</time>
</trkpt>
<trkpt lat="32.6169876" lon="35.3548799">
<ele>440.999969</ele>
<time>2010-01-01T01:30:28.000Z</time>
</trkpt>
<trkpt lat="32.6168572" lon="35.3550868">
<ele>442.000000</ele>
<time>2010-01-01T01:30:36.000Z</time>
</trkpt>
<trkpt lat="32.6166995" lon="35.3552485">
<ele>440.999969</ele>
<time>2010-01-01T01:30:45.000Z</time>
</trkpt>
<trkpt lat="32.6165122" lon="35.3553195">
<ele>437.000000</ele>
<time>2010-01-01T01:30:53.000Z</time>
</trkpt>
<trkpt lat="32.6162883" lon="35.3554319">
<ele>434.000000</ele>
<time>2010-01-01T01:31:02.000Z</time>
</trkpt>
<trkpt lat="32.6161267" lon="35.3555546">
<ele>433.000000</ele>
<time>2010-01-01T01:31:10.000Z</time>
</trkpt>
<trkpt lat="32.6158824" lon="35.3556379">
<ele>430.000000</ele>
<time>2010-01-01T01:31:20.000Z</time>
</trkpt>
<trkpt lat="32.6156556" lon="35.3557526">
<ele>430.000000</ele>
<time>2010-01-01T01:31:30.000Z</time>
</trkpt>
<trkpt lat="32.6154232" lon="35.3558502">
<ele>431.000000</ele>
<time>2010-01-01T01:31:40.000Z</time>
</trkpt>
<trkpt lat="32.6152032" lon="35.3559228">
<ele>431.000000</ele>
<time>2010-01-01T01:31:49.000Z</time>
</trkpt>
<trkpt lat="32.6149894" lon="35.3560079">
<ele>430.000000</ele>
<time>2010-01-01T01:31:58.000Z</time>
</trkpt>
<trkpt lat="32.6147090" lon="35.3561081">
<ele>424.000031</ele>
<time>2010-01-01T01:32:10.000Z</time>
</trkpt>
<trkpt lat="32.6144362" lon="35.3562076">
<ele>424.000031</ele>
<time>2010-01-01T01:32:21.000Z</time>
</trkpt>
<trkpt lat="32.6142289" lon="35.3562941">
<ele>423.000000</ele>
<time>2010-01-01T01:32:30.000Z</time>
</trkpt>
<trkpt lat="32.6140335" lon="35.3564226">
<ele>422.000000</ele>
<time>2010-01-01T01:32:39.000Z</time>
</trkpt>
<trkpt lat="32.6139193" lon="35.3566031">
<ele>419.000000</ele>
<time>2010-01-01T01:32:47.000Z</time>
</trkpt>
<trkpt lat="32.6138522" lon="35.3563830">
<ele>421.000000</ele>
<time>2010-01-01T01:32:54.000Z</time>
</trkpt>
<trkpt lat="32.6139935" lon="35.3561381">
<ele>420.000000</ele>
<time>2010-01-01T01:33:04.000Z</time>
</trkpt>
<trkpt lat="32.6141841" lon="35.3560017">
<ele>420.000000</ele>
<time>2010-01-01T01:33:13.000Z</time>
</trkpt>
<trkpt lat="32.6144315" lon="35.3558973">
<ele>419.000000</ele>
<time>2010-01-01T01:33:24.000Z</time>
</trkpt>
<trkpt lat="32.6146419" lon="35.3558058">
<ele>419.000000</ele>
<time>2010-01-01T01:33:33.000Z</time>
</trkpt>
<trkpt lat="32.6148647" lon="35.3556930">
<ele>419.000000</ele>
<time>2010-01-01T01:33:43.000Z</time>
</trkpt>
<trkpt lat="32.6150561" lon="35.3555894">
<ele>418.000000</ele>
<time>2010-01-01T01:33:51.000Z</time>
</trkpt>
<trkpt lat="32.6152364" lon="35.3553898">
<ele>412.999969</ele>
<time>2010-01-01T01:34:01.000Z</time>
</trkpt>
<trkpt lat="32.6154331" lon="35.3552236">
<ele>410.000031</ele>
<time>2010-01-01T01:34:11.000Z</time>
</trkpt>
<trkpt lat="32.6156363" lon="35.3550599">
<ele>408.000000</ele>
<time>2010-01-01T01:34:20.000Z</time>
</trkpt>
<trkpt lat="32.6158525" lon="35.3549134">
<ele>407.000000</ele>
<time>2010-01-01T01:34:30.000Z</time>
</trkpt>
<trkpt lat="32.6160532" lon="35.3547455">
<ele>406.000000</ele>
<time>2010-01-01T01:34:40.000Z</time>
</trkpt>
<trkpt lat="32.6162566" lon="35.3544868">
<ele>406.000000</ele>
<time>2010-01-01T01:34:52.000Z</time>
</trkpt>
<trkpt lat="32.6164145" lon="35.3542775">
<ele>407.000000</ele>
<time>2010-01-01T01:35:02.000Z</time>
</trkpt>
<trkpt lat="32.6165263" lon="35.3540985">
<ele>409.000000</ele>
<time>2010-01-01T01:35:09.000Z</time>
</trkpt>
<trkpt lat="32.6162932" lon="35.3542223">
<ele>401.999969</ele>
<time>2010-01-01T01:35:19.000Z</time>
</trkpt>
<trkpt lat="32.6161262" lon="35.3543580">
<ele>398.000000</ele>
<time>2010-01-01T01:35:27.000Z</time>
</trkpt>
<trkpt lat="32.6159217" lon="35.3544943">
<ele>396.000000</ele>
<time>2010-01-01T01:35:37.000Z</time>
</trkpt>
<trkpt lat="32.6157027" lon="35.3546289">
<ele>395.000000</ele>
<time>2010-01-01T01:35:47.000Z</time>
</trkpt>
<trkpt lat="32.6154891" lon="35.3547223">
<ele>393.000000</ele>
<time>2010-01-01T01:35:56.000Z</time>
</trkpt>
<trkpt lat="32.6152548" lon="35.3547791">
<ele>391.000000</ele>
<time>2010-01-01T01:36:05.000Z</time>
</trkpt>
<trkpt lat="32.6150206" lon="35.3548543">
<ele>387.999969</ele>
<time>2010-01-01T01:36:15.000Z</time>
</trkpt>
<trkpt lat="32.6147788" lon="35.3549194">
<ele>389.000000</ele>
<time>2010-01-01T01:36:25.000Z</time>
</trkpt>
<trkpt lat="32.6145151" lon="35.3549500">
<ele>387.000000</ele>
<time>2010-01-01T01:36:36.000Z</time>
</trkpt>
<trkpt lat="32.6142981" lon="35.3549711">
<ele>386.000000</ele>
<time>2010-01-01T01:36:44.000Z</time>
</trkpt>
<trkpt lat="32.6140345" lon="35.3549543">
<ele>385.000031</ele>
<time>2010-01-01T01:36:55.000Z</time>
</trkpt>
<trkpt lat="32.6137973" lon="35.3549116">
<ele>382.000000</ele>
<time>2010-01-01T01:37:04.000Z</time>
</trkpt>
<trkpt lat="32.6135741" lon="35.3548939">
<ele>379.000000</ele>
<time>2010-01-01T01:37:13.000Z</time>
</trkpt>
<trkpt lat="32.6133000" lon="35.3549246">
<ele>376.999969</ele>
<time>2010-01-01T01:37:24.000Z</time>
</trkpt>
<trkpt lat="32.6130528" lon="35.3549908">
<ele>380.000000</ele>
<time>2010-01-01T01:37:35.000Z</time>
</trkpt>
<trkpt lat="32.6128224" lon="35.3551140">
<ele>384.000000</ele>
<time>2010-01-01T01:37:45.000Z</time>
</trkpt>
<trkpt lat="32.6126502" lon="35.3552149">
<ele>387.000000</ele>
<time>2010-01-01T01:37:52.000Z</time>
</trkpt>
<trkpt lat="32.6124255" lon="35.3552859">
<ele>387.000000</ele>
<time>2010-01-01T01:38:02.000Z</time>
</trkpt>
<trkpt lat="32.6121649" lon="35.3553468">
<ele>384.000000</ele>
<time>2010-01-01T01:38:12.000Z</time>
</trkpt>
<trkpt lat="32.6119528" lon="35.3553113">
<ele>380.000000</ele>
<time>2010-01-01T01:38:21.000Z</time>
</trkpt>
<trkpt lat="32.6117798" lon="35.3552192">
<ele>376.999969</ele>
<time>2010-01-01T01:38:28.000Z</time>
</trkpt>
<trkpt lat="32.6115473" lon="35.3552520">
<ele>376.000000</ele>
<time>2010-01-01T01:38:38.000Z</time>
</trkpt>
<trkpt lat="32.6113192" lon="35.3551744">
<ele>372.000000</ele>
<time>2010-01-01T01:38:47.000Z</time>
</trkpt>
<trkpt lat="32.6111132" lon="35.3551600">
<ele>368.000000</ele>
<time>2010-01-01T01:38:56.000Z</time>
</trkpt>
<trkpt lat="32.6110591" lon="35.3549250">
<ele>364.000000</ele>
<time>2010-01-01T01:39:04.000Z</time>
</trkpt>
<trkpt lat="32.6108915" lon="35.3547960">
<ele>358.000000</ele>
<time>2010-01-01T01:39:12.000Z</time>
</trkpt>
<trkpt lat="32.6107407" lon="35.3550316">
<ele>358.000000</ele>
<time>2010-01-01T01:39:22.000Z</time>
</trkpt>
<trkpt lat="32.6106552" lon="35.3552887">
<ele>358.000000</ele>
<time>2010-01-01T01:39:31.000Z</time>
</trkpt>
<trkpt lat="32.6106600" lon="35.3555801">
<ele>355.000000</ele>
<time>2010-01-01T01:39:41.000Z</time>
</trkpt>
<trkpt lat="32.6106977" lon="35.3558760">
<ele>351.999969</ele>
<time>2010-01-01T01:39:51.000Z</time>
</trkpt>
<trkpt lat="32.6107734" lon="35.3561789">
<ele>348.000000</ele>
<time>2010-01-01T01:40:02.000Z</time>
</trkpt>
<trkpt lat="32.6109101" lon="35.3564383">
<ele>345.000000</ele>
<time>2010-01-01T01:40:12.000Z</time>
</trkpt>
<trkpt lat="32.6110411" lon="35.3566941">
<ele>341.000000</ele>
<time>2010-01-01T01:40:22.000Z</time>
</trkpt>
<trkpt lat="32.6111975" lon="35.3568726">
<ele>342.000000</ele>
<time>2010-01-01T01:40:31.000Z</time>
</trkpt>
<trkpt lat="32.6113264" lon="35.3570452">
<ele>341.000000</ele>
<time>2010-01-01T01:40:39.000Z</time>
</trkpt>
<trkpt lat="32.6115194" lon="35.3572761">
<ele>339.000000</ele>
<time>2010-01-01T01:40:50.000Z</time>
</trkpt>
<trkpt lat="32.6117051" lon="35.3574532">
<ele>337.000000</ele>
<time>2010-01-01T01:40:59.000Z</time>
</trkpt>
<trkpt lat="32.6118805" lon="35.3576646">
<ele>335.000031</ele>
<time>2010-01-01T01:41:09.000Z</time>
</trkpt>
<trkpt lat="32.6120374" lon="35.3578303">
<ele>335.000031</ele>
<time>2010-01-01T01:41:17.000Z</time>
</trkpt>
<trkpt lat="32.6121470" lon="35.3580928">
<ele>334.000000</ele>
<time>2010-01-01T01:41:27.000Z</time>
</trkpt>
<trkpt lat="32.6122426" lon="35.3583369">
<ele>332.000000</ele>
<time>2010-01-01T01:41:36.000Z</time>
</trkpt>
<trkpt lat="32.6123063" lon="35.3585769">
<ele>332.000000</ele>
<time>2010-01-01T01:41:45.000Z</time>
</trkpt>
<trkpt lat="32.6120841" lon="35.3586261">
<ele>328.000000</ele>
<time>2010-01-01T01:41:54.000Z</time>
</trkpt>
<trkpt lat="32.6118849" lon="35.3585815">
<ele>325.000000</ele>
<time>2010-01-01T01:42:02.000Z</time>
</trkpt>
<trkpt lat="32.6116324" lon="35.3586042">
<ele>320.000000</ele>
<time>2010-01-01T01:42:12.000Z</time>
</trkpt>
<trkpt lat="32.6113890" lon="35.3586637">
<ele>317.000000</ele>
<time>2010-01-01T01:42:22.000Z</time>
</trkpt>
<trkpt lat="32.6111225" lon="35.3587136">
<ele>315.000000</ele>
<time>2010-01-01T01:42:33.000Z</time>
</trkpt>
<trkpt lat="32.6108565" lon="35.3587544">
<ele>319.000000</ele>
<time>2010-01-01T01:42:44.000Z</time>
</trkpt>
<trkpt lat="32.6106333" lon="35.3587774">
<ele>322.000000</ele>
<time>2010-01-01T01:42:53.000Z</time>
</trkpt>
<trkpt lat="32.6104046" lon="35.3588546">
<ele>323.999969</ele>
<time>2010-01-01T01:43:02.000Z</time>
</trkpt>
<trkpt lat="32.6102194" lon="35.3588848">
<ele>323.000000</ele>
<time>2010-01-01T01:43:10.000Z</time>
</trkpt>
<trkpt lat="32.6100223" lon="35.3589685">
<ele>323.000000</ele>
<time>2010-01-01T01:43:18.000Z</time>
</trkpt>
<trkpt lat="32.6097737" lon="35.3590594">
<ele>322.000000</ele>
<time>2010-01-01T01:43:28.000Z</time>
</trkpt>
<trkpt lat="32.6095123" lon="35.3592560">
<ele>321.000031</ele>
<time>2010-01-01T01:43:41.000Z</time>
</trkpt>
<trkpt lat="32.6093174" lon="35.3594555">
<ele>320.000000</ele>
<time>2010-01-01T01:43:51.000Z</time>
</trkpt>
<trkpt lat="32.6091779" lon="35.3596721">
<ele>320.000000</ele>
<time>2010-01-01T01:44:00.000Z</time>
</trkpt>
<trkpt lat="32.6090533" lon="35.3599082">
<ele>320.000000</ele>
<time>2010-01-01T01:44:10.000Z</time>
</trkpt>
<trkpt lat="32.6090034" lon="35.3601581">
<ele>321.000031</ele>
<time>2010-01-01T01:44:18.000Z</time>
</trkpt>
<trkpt lat="32.6089589" lon="35.3604285">
<ele>321.000031</ele>
<time>2010-01-01T01:44:28.000Z</time>
</trkpt>
<trkpt lat="32.6090064" lon="35.3607328">
<ele>323.000000</ele>
<time>2010-01-01T01:44:38.000Z</time>
</trkpt>
<trkpt lat="32.6091253" lon="35.3609788">
<ele>326.000000</ele>
<time>2010-01-01T01:44:48.000Z</time>
</trkpt>
<trkpt lat="32.6092136" lon="35.3612036">
<ele>329.000000</ele>
<time>2010-01-01T01:44:56.000Z</time>
</trkpt>
<trkpt lat="32.6093065" lon="35.3614548">
<ele>329.000000</ele>
<time>2010-01-01T01:45:05.000Z</time>
</trkpt>
<trkpt lat="32.6094042" lon="35.3617145">
<ele>331.000000</ele>
<time>2010-01-01T01:45:15.000Z</time>
</trkpt>
<trkpt lat="32.6094658" lon="35.3619322">
<ele>333.000000</ele>
<time>2010-01-01T01:45:23.000Z</time>
</trkpt>
<trkpt lat="32.6093629" lon="35.3621534">
<ele>333.000000</ele>
<time>2010-01-01T01:45:31.000Z</time>
</trkpt>
<trkpt lat="32.6092070" lon="35.3622878">
<ele>331.000000</ele>
<time>2010-01-01T01:45:39.000Z</time>
</trkpt>
<trkpt lat="32.6090382" lon="35.3624345">
<ele>330.000000</ele>
<time>2010-01-01T01:45:47.000Z</time>
</trkpt>
<trkpt lat="32.6088413" lon="35.3626209">
<ele>332.000000</ele>
<time>2010-01-01T01:45:57.000Z</time>
</trkpt>
<trkpt lat="32.6086868" lon="35.3627614">
<ele>335.000031</ele>
<time>2010-01-01T01:46:05.000Z</time>
</trkpt>
<trkpt lat="32.6085276" lon="35.3629133">
<ele>334.000000</ele>
<time>2010-01-01T01:46:13.000Z</time>
</trkpt>
<trkpt lat="32.6083741" lon="35.3630464">
<ele>332.000000</ele>
<time>2010-01-01T01:46:21.000Z</time>
</trkpt>
<trkpt lat="32.6082212" lon="35.3631912">
<ele>330.000000</ele>
<time>2010-01-01T01:46:29.000Z</time>
</trkpt>
<trkpt lat="32.6080700" lon="35.3633729">
<ele>331.000000</ele>
<time>2010-01-01T01:46:37.000Z</time>
</trkpt>
<trkpt lat="32.6079274" lon="35.3635433">
<ele>331.000000</ele>
<time>2010-01-01T01:46:45.000Z</time>
</trkpt>
<trkpt lat="32.6077854" lon="35.3637262">
<ele>329.000000</ele>
<time>2010-01-01T01:46:54.000Z</time>
</trkpt>
<trkpt lat="32.6076548" lon="35.3639543">
<ele>329.000000</ele>
<time>2010-01-01T01:47:03.000Z</time>
</trkpt>
<trkpt lat="32.6075366" lon="35.3641883">
<ele>329.000000</ele>
<time>2010-01-01T01:47:12.000Z</time>
</trkpt>
<trkpt lat="32.6074490" lon="35.3644493">
<ele>329.000000</ele>
<time>2010-01-01T01:47:22.000Z</time>
</trkpt>
<trkpt lat="32.6074104" lon="35.3647210">
<ele>331.000000</ele>
<time>2010-01-01T01:47:31.000Z</time>
</trkpt>
<trkpt lat="32.6074027" lon="35.3649751">
<ele>331.000000</ele>
<time>2010-01-01T01:47:40.000Z</time>
</trkpt>
<trkpt lat="32.6073914" lon="35.3652123">
<ele>331.000000</ele>
<time>2010-01-01T01:47:48.000Z</time>
</trkpt>
<trkpt lat="32.6074252" lon="35.3654309">
<ele>332.000000</ele>
<time>2010-01-01T01:47:55.000Z</time>
</trkpt>
<trkpt lat="32.6074689" lon="35.3656392">
<ele>334.000000</ele>
<time>2010-01-01T01:48:02.000Z</time>
</trkpt>
<trkpt lat="32.6075152" lon="35.3658458">
<ele>336.000000</ele>
<time>2010-01-01T01:48:10.000Z</time>
</trkpt>
<trkpt lat="32.6075265" lon="35.3660887">
<ele>335.000031</ele>
<time>2010-01-01T01:48:18.000Z</time>
</trkpt>
<trkpt lat="32.6075869" lon="35.3663875">
<ele>336.000000</ele>
<time>2010-01-01T01:48:28.000Z</time>
</trkpt>
<trkpt lat="32.6075941" lon="35.3666187">
<ele>336.000000</ele>
<time>2010-01-01T01:48:36.000Z</time>
</trkpt>
<trkpt lat="32.6075833" lon="35.3668600">
<ele>336.000000</ele>
<time>2010-01-01T01:48:44.000Z</time>
</trkpt>
<trkpt lat="32.6075228" lon="35.3671057">
<ele>335.000031</ele>
<time>2010-01-01T01:48:53.000Z</time>
</trkpt>
<trkpt lat="32.6074431" lon="35.3673177">
<ele>333.000000</ele>
<time>2010-01-01T01:49:01.000Z</time>
</trkpt>
<trkpt lat="32.6073758" lon="35.3675271">
<ele>333.000000</ele>
<time>2010-01-01T01:49:08.000Z</time>
</trkpt>
<trkpt lat="32.6073488" lon="35.3677498">
<ele>333.000000</ele>
<time>2010-01-01T01:49:16.000Z</time>
</trkpt>
<trkpt lat="32.6073360" lon="35.3679767">
<ele>334.000000</ele>
<time>2010-01-01T01:49:23.000Z</time>
</trkpt>
<trkpt lat="32.6072938" lon="35.3682019">
<ele>333.000000</ele>
<time>2010-01-01T01:49:31.000Z</time>
</trkpt>
<trkpt lat="32.6071696" lon="35.3683731">
<ele>330.000000</ele>
<time>2010-01-01T01:49:39.000Z</time>
</trkpt>
<trkpt lat="32.6071733" lon="35.3686845">
<ele>328.000000</ele>
<time>2010-01-01T01:49:49.000Z</time>
</trkpt>
<trkpt lat="32.6072102" lon="35.3689229">
<ele>326.999969</ele>
<time>2010-01-01T01:49:57.000Z</time>
</trkpt>
<trkpt lat="32.6069839" lon="35.3688989">
<ele>323.000000</ele>
<time>2010-01-01T01:50:07.000Z</time>
</trkpt>
<trkpt lat="32.6071412" lon="35.3691498">
<ele>322.000000</ele>
<time>2010-01-01T01:50:17.000Z</time>
</trkpt>
<trkpt lat="32.6071067" lon="35.3694410">
<ele>312.999969</ele>
<time>2010-01-01T01:50:27.000Z</time>
</trkpt>
<trkpt lat="32.6068802" lon="35.3696337">
<ele>306.000000</ele>
<time>2010-01-01T01:50:38.000Z</time>
</trkpt>
<trkpt lat="32.6066133" lon="35.3696614">
<ele>301.000000</ele>
<time>2010-01-01T01:50:49.000Z</time>
</trkpt>
<trkpt lat="32.6063853" lon="35.3695572">
<ele>301.000000</ele>
<time>2010-01-01T01:50:59.000Z</time>
</trkpt>
<trkpt lat="32.6061494" lon="35.3694846">
<ele>299.000000</ele>
<time>2010-01-01T01:51:08.000Z</time>
</trkpt>
<trkpt lat="32.6059284" lon="35.3694351">
<ele>299.000000</ele>
<time>2010-01-01T01:51:17.000Z</time>
</trkpt>
<trkpt lat="32.6057414" lon="35.3694149">
<ele>298.000000</ele>
<time>2010-01-01T01:51:25.000Z</time>
</trkpt>
<trkpt lat="32.6055470" lon="35.3696227">
<ele>298.000000</ele>
<time>2010-01-01T01:51:35.000Z</time>
</trkpt>
<trkpt lat="32.6056313" lon="35.3698660">
<ele>295.000000</ele>
<time>2010-01-01T01:51:44.000Z</time>
</trkpt>
<trkpt lat="32.6056423" lon="35.3701086">
<ele>291.000000</ele>
<time>2010-01-01T01:51:53.000Z</time>
</trkpt>
<trkpt lat="32.6054008" lon="35.3702466">
<ele>288.000000</ele>
<time>2010-01-01T01:52:03.000Z</time>
</trkpt>
<trkpt lat="32.6052280" lon="35.3703330">
<ele>287.000000</ele>
<time>2010-01-01T01:52:11.000Z</time>
</trkpt>
<trkpt lat="32.6049514" lon="35.3703361">
<ele>285.000000</ele>
<time>2010-01-01T01:52:22.000Z</time>
</trkpt>
<trkpt lat="32.6047987" lon="35.3701815">
<ele>284.000000</ele>
<time>2010-01-01T01:52:30.000Z</time>
</trkpt>
<trkpt lat="32.6046259" lon="35.3700178">
<ele>283.000000</ele>
<time>2010-01-01T01:52:39.000Z</time>
</trkpt>
<trkpt lat="32.6044965" lon="35.3698278">
<ele>281.000000</ele>
<time>2010-01-01T01:52:47.000Z</time>
</trkpt>
<trkpt lat="32.6045096" lon="35.3695732">
<ele>282.000000</ele>
<time>2010-01-01T01:52:56.000Z</time>
</trkpt>
<trkpt lat="32.6045906" lon="35.3693029">
<ele>284.000000</ele>
<time>2010-01-01T01:53:05.000Z</time>
</trkpt>
<trkpt lat="32.6045667" lon="35.3690636">
<ele>284.000000</ele>
<time>2010-01-01T01:53:13.000Z</time>
</trkpt>
<trkpt lat="32.6046077" lon="35.3688363">
<ele>283.000000</ele>
<time>2010-01-01T01:53:21.000Z</time>
</trkpt>
<trkpt lat="32.6046602" lon="35.3685373">
<ele>282.000000</ele>
<time>2010-01-01T01:53:31.000Z</time>
</trkpt>
<trkpt lat="32.6047040" lon="35.3683126">
<ele>282.000000</ele>
<time>2010-01-01T01:53:39.000Z</time>
</trkpt>
<trkpt lat="32.6047729" lon="35.3680568">
<ele>281.000000</ele>
<time>2010-01-01T01:53:48.000Z</time>
</trkpt>
<trkpt lat="32.6049324" lon="35.3678705">
<ele>281.000000</ele>
<time>2010-01-01T01:53:57.000Z</time>
</trkpt>
<trkpt lat="32.6051117" lon="35.3676011">
<ele>280.000000</ele>
<time>2010-01-01T01:54:09.000Z</time>
</trkpt>
<trkpt lat="32.6052362" lon="35.3674039">
<ele>280.000000</ele>
<time>2010-01-01T01:54:17.000Z</time>
</trkpt>
<trkpt lat="32.6054099" lon="35.3672137">
<ele>279.000000</ele>
<time>2010-01-01T01:54:27.000Z</time>
</trkpt>
<trkpt lat="32.6055792" lon="35.3669752">
<ele>276.000000</ele>
<time>2010-01-01T01:54:37.000Z</time>
</trkpt>
<trkpt lat="32.6057450" lon="35.3667346">
<ele>272.000000</ele>
<time>2010-01-01T01:54:48.000Z</time>
</trkpt>
<trkpt lat="32.6059174" lon="35.3664940">
<ele>272.000000</ele>
<time>2010-01-01T01:54:58.000Z</time>
</trkpt>
<trkpt lat="32.6056874" lon="35.3665936">
<ele>269.000000</ele>
<time>2010-01-01T01:55:08.000Z</time>
</trkpt>
<trkpt lat="32.6054869" lon="35.3667139">
<ele>269.000000</ele>
<time>2010-01-01T01:55:17.000Z</time>
</trkpt>
<trkpt lat="32.6052431" lon="35.3667202">
<ele>265.000000</ele>
<time>2010-01-01T01:55:27.000Z</time>
</trkpt>
<trkpt lat="32.6050556" lon="35.3668494">
<ele>266.000000</ele>
<time>2010-01-01T01:55:36.000Z</time>
</trkpt>
<trkpt lat="32.6048942" lon="35.3669620">
<ele>266.000000</ele>
<time>2010-01-01T01:55:43.000Z</time>
</trkpt>
<trkpt lat="32.6047053" lon="35.3671463">
<ele>265.000000</ele>
<time>2010-01-01T01:55:53.000Z</time>
</trkpt>
<trkpt lat="32.6045506" lon="35.3673525">
<ele>266.000000</ele>
<time>2010-01-01T01:56:02.000Z</time>
</trkpt>
<trkpt lat="32.6043958" lon="35.3675079">
<ele>266.000000</ele>
<time>2010-01-01T01:56:10.000Z</time>
</trkpt>
<trkpt lat="32.6041873" lon="35.3676534">
<ele>264.000000</ele>
<time>2010-01-01T01:56:20.000Z</time>
</trkpt>
<trkpt lat="32.6040459" lon="35.3678878">
<ele>263.000000</ele>
<time>2010-01-01T01:56:30.000Z</time>
</trkpt>
<trkpt lat="32.6039545" lon="35.3680810">
<ele>263.000000</ele>
<time>2010-01-01T01:56:37.000Z</time>
</trkpt>
<trkpt lat="32.6038619" lon="35.3683802">
<ele>263.000000</ele>
<time>2010-01-01T01:56:48.000Z</time>
</trkpt>
<trkpt lat="32.6038054" lon="35.3685838">
<ele>264.000000</ele>
<time>2010-01-01T01:56:55.000Z</time>
</trkpt>
<trkpt lat="32.6036820" lon="35.3688361">
<ele>265.000000</ele>
<time>2010-01-01T01:57:05.000Z</time>
</trkpt>
<trkpt lat="32.6036477" lon="35.3691112">
<ele>262.000000</ele>
<time>2010-01-01T01:57:14.000Z</time>
</trkpt>
<trkpt lat="32.6034734" lon="35.3690005">
<ele>258.000000</ele>
<time>2010-01-01T01:57:22.000Z</time>
</trkpt>
<trkpt lat="32.6034568" lon="35.3687164">
<ele>257.000000</ele>
<time>2010-01-01T01:57:32.000Z</time>
</trkpt>
<trkpt lat="32.6034784" lon="35.3684453">
<ele>255.000000</ele>
<time>2010-01-01T01:57:41.000Z</time>
</trkpt>
<trkpt lat="32.6035294" lon="35.3681526">
<ele>254.000000</ele>
<time>2010-01-01T01:57:51.000Z</time>
</trkpt>
<trkpt lat="32.6036310" lon="35.3679225">
<ele>255.000000</ele>
<time>2010-01-01T01:58:00.000Z</time>
</trkpt>
<trkpt lat="32.6036999" lon="35.3676451">
<ele>254.000000</ele>
<time>2010-01-01T01:58:10.000Z</time>
</trkpt>
<trkpt lat="32.6037574" lon="35.3674103">
<ele>253.000000</ele>
<time>2010-01-01T01:58:18.000Z</time>
</trkpt>
<trkpt lat="32.6038362" lon="35.3671816">
<ele>252.000000</ele>
<time>2010-01-01T01:58:26.000Z</time>
</trkpt>
<trkpt lat="32.6038702" lon="35.3669351">
<ele>249.000000</ele>
<time>2010-01-01T01:58:35.000Z</time>
</trkpt>
<trkpt lat="32.6036795" lon="35.3668492">
<ele>242.000000</ele>
<time>2010-01-01T01:58:43.000Z</time>
</trkpt>
<trkpt lat="32.6034706" lon="35.3670479">
<ele>241.000000</ele>
<time>2010-01-01T01:58:53.000Z</time>
</trkpt>
<trkpt lat="32.6032916" lon="35.3672569">
<ele>242.000000</ele>
<time>2010-01-01T01:59:04.000Z</time>
</trkpt>
<trkpt lat="32.6031965" lon="35.3674904">
<ele>243.000000</ele>
<time>2010-01-01T01:59:12.000Z</time>
</trkpt>
<trkpt lat="32.6030992" lon="35.3677172">
<ele>243.000000</ele>
<time>2010-01-01T01:59:21.000Z</time>
</trkpt>
<trkpt lat="32.6029618" lon="35.3679333">
<ele>241.000000</ele>
<time>2010-01-01T01:59:30.000Z</time>
</trkpt>
<trkpt lat="32.6028082" lon="35.3681472">
<ele>239.000000</ele>
<time>2010-01-01T01:59:39.000Z</time>
</trkpt>
<trkpt lat="32.6027112" lon="35.3683977">
<ele>237.000015</ele>
<time>2010-01-01T01:59:49.000Z</time>
</trkpt>
<trkpt lat="32.6026251" lon="35.3687072">
<ele>235.000000</ele>
<time>2010-01-01T02:00:00.000Z</time>
</trkpt>
<trkpt lat="32.6026174" lon="35.3690381">
<ele>236.000000</ele>
<time>2010-01-01T02:00:11.000Z</time>
</trkpt>
<trkpt lat="32.6024965" lon="35.3693543">
<ele>232.999985</ele>
<time>2010-01-01T02:00:23.000Z</time>
</trkpt>
<trkpt lat="32.6023872" lon="35.3696905">
<ele>230.000000</ele>
<time>2010-01-01T02:00:35.000Z</time>
</trkpt>
<trkpt lat="32.6023165" lon="35.3699718">
<ele>228.000000</ele>
<time>2010-01-01T02:00:45.000Z</time>
</trkpt>
<trkpt lat="32.6022431" lon="35.3702700">
<ele>227.000000</ele>
<time>2010-01-01T02:00:55.000Z</time>
</trkpt>
<trkpt lat="32.6022140" lon="35.3705494">
<ele>227.000000</ele>
<time>2010-01-01T02:01:05.000Z</time>
</trkpt>
<trkpt lat="32.6021761" lon="35.3708247">
<ele>225.000000</ele>
<time>2010-01-01T02:01:14.000Z</time>
</trkpt>
<trkpt lat="32.6021209" lon="35.3710962">
<ele>221.000000</ele>
<time>2010-01-01T02:01:23.000Z</time>
</trkpt>
<trkpt lat="32.6021412" lon="35.3713693">
<ele>219.000015</ele>
<time>2010-01-01T02:01:33.000Z</time>
</trkpt>
<trkpt lat="32.6021732" lon="35.3716746">
<ele>219.000015</ele>
<time>2010-01-01T02:01:43.000Z</time>
</trkpt>
<trkpt lat="32.6022462" lon="35.3719534">
<ele>221.000000</ele>
<time>2010-01-01T02:01:53.000Z</time>
</trkpt>
<trkpt lat="32.6023461" lon="35.3721379">
<ele>220.000000</ele>
<time>2010-01-01T02:02:00.000Z</time>
</trkpt>
<trkpt lat="32.6024784" lon="35.3723117">
<ele>220.000000</ele>
<time>2010-01-01T02:02:08.000Z</time>
</trkpt>
<trkpt lat="32.6025873" lon="35.3724997">
<ele>220.000000</ele>
<time>2010-01-01T02:02:16.000Z</time>
</trkpt>
<trkpt lat="32.6026393" lon="35.3727346">
<ele>217.000000</ele>
<time>2010-01-01T02:02:24.000Z</time>
</trkpt>
<trkpt lat="32.6026280" lon="35.3729922">
<ele>216.000000</ele>
<time>2010-01-01T02:02:33.000Z</time>
</trkpt>
<trkpt lat="32.6026429" lon="35.3732395">
<ele>214.000000</ele>
<time>2010-01-01T02:02:41.000Z</time>
</trkpt>
<trkpt lat="32.6026959" lon="35.3734527">
<ele>213.000000</ele>
<time>2010-01-01T02:02:49.000Z</time>
</trkpt>
<trkpt lat="32.6027613" lon="35.3736697">
<ele>212.000015</ele>
<time>2010-01-01T02:02:56.000Z</time>
</trkpt>
<trkpt lat="32.6029254" lon="35.3738410">
<ele>213.000000</ele>
<time>2010-01-01T02:03:05.000Z</time>
</trkpt>
<trkpt lat="32.6030894" lon="35.3739727">
<ele>213.000000</ele>
<time>2010-01-01T02:03:13.000Z</time>
</trkpt>
<trkpt lat="32.6032226" lon="35.3741663">
<ele>211.000000</ele>
<time>2010-01-01T02:03:22.000Z</time>
</trkpt>
<trkpt lat="32.6033481" lon="35.3743493">
<ele>209.000000</ele>
<time>2010-01-01T02:03:30.000Z</time>
</trkpt>
<trkpt lat="32.6034937" lon="35.3744890">
<ele>207.999985</ele>
<time>2010-01-01T02:03:37.000Z</time>
</trkpt>
<trkpt lat="32.6036912" lon="35.3745874">
<ele>206.000000</ele>
<time>2010-01-01T02:03:46.000Z</time>
</trkpt>
<trkpt lat="32.6034776" lon="35.3746840">
<ele>203.000000</ele>
<time>2010-01-01T02:03:55.000Z</time>
</trkpt>
<trkpt lat="32.6032280" lon="35.3746276">
<ele>202.000000</ele>
<time>2010-01-01T02:04:05.000Z</time>
</trkpt>
<trkpt lat="32.6030440" lon="35.3745340">
<ele>202.000000</ele>
<time>2010-01-01T02:04:13.000Z</time>
</trkpt>
<trkpt lat="32.6028492" lon="35.3744218">
<ele>204.000000</ele>
<time>2010-01-01T02:04:22.000Z</time>
</trkpt>
<trkpt lat="32.6026054" lon="35.3743417">
<ele>203.000000</ele>
<time>2010-01-01T02:04:32.000Z</time>
</trkpt>
<trkpt lat="32.6023823" lon="35.3742746">
<ele>200.999985</ele>
<time>2010-01-01T02:04:41.000Z</time>
</trkpt>
<trkpt lat="32.6022494" lon="35.3741052">
<ele>200.999985</ele>
<time>2010-01-01T02:04:49.000Z</time>
</trkpt>
<trkpt lat="32.6021708" lon="35.3738490">
<ele>200.999985</ele>
<time>2010-01-01T02:04:58.000Z</time>
</trkpt>
<trkpt lat="32.6021245" lon="35.3736409">
<ele>202.000000</ele>
<time>2010-01-01T02:05:05.000Z</time>
</trkpt>
<trkpt lat="32.6020973" lon="35.3734045">
<ele>202.000000</ele>
<time>2010-01-01T02:05:13.000Z</time>
</trkpt>
<trkpt lat="32.6020468" lon="35.3736700">
<ele>200.000000</ele>
<time>2010-01-01T02:05:22.000Z</time>
</trkpt>
<trkpt lat="32.6020308" lon="35.3738900">
<ele>198.000000</ele>
<time>2010-01-01T02:05:30.000Z</time>
</trkpt>
<trkpt lat="32.6020654" lon="35.3741523">
<ele>196.000000</ele>
<time>2010-01-01T02:05:39.000Z</time>
</trkpt>
<trkpt lat="32.6022332" lon="35.3743745">
<ele>197.000000</ele>
<time>2010-01-01T02:05:49.000Z</time>
</trkpt>
<trkpt lat="32.6023346" lon="35.3745532">
<ele>197.000000</ele>
<time>2010-01-01T02:05:56.000Z</time>
</trkpt>
<trkpt lat="32.6024078" lon="35.3747856">
<ele>195.000000</ele>
<time>2010-01-01T02:06:04.000Z</time>
</trkpt>
<trkpt lat="32.6025460" lon="35.3749720">
<ele>193.999985</ele>
<time>2010-01-01T02:06:13.000Z</time>
</trkpt>
<trkpt lat="32.6027184" lon="35.3751508">
<ele>190.000000</ele>
<time>2010-01-01T02:06:22.000Z</time>
</trkpt>
<trkpt lat="32.6027584" lon="35.3753645">
<ele>185.000000</ele>
<time>2010-01-01T02:06:29.000Z</time>
</trkpt>
<trkpt lat="32.6025215" lon="35.3754508">
<ele>183.000000</ele>
<time>2010-01-01T02:06:39.000Z</time>
</trkpt>
<trkpt lat="32.6023755" lon="35.3752960">
<ele>185.000000</ele>
<time>2010-01-01T02:06:47.000Z</time>
</trkpt>
<trkpt lat="32.6022314" lon="35.3751412">
<ele>188.000000</ele>
<time>2010-01-01T02:06:55.000Z</time>
</trkpt>
<trkpt lat="32.6020448" lon="35.3750351">
<ele>186.000000</ele>
<time>2010-01-01T02:07:03.000Z</time>
</trkpt>
<trkpt lat="32.6019468" lon="35.3748334">
<ele>186.000000</ele>
<time>2010-01-01T02:07:11.000Z</time>
</trkpt>
<trkpt lat="32.6018303" lon="35.3746589">
<ele>184.000000</ele>
<time>2010-01-01T02:07:19.000Z</time>
</trkpt>
<trkpt lat="32.6016368" lon="35.3745270">
<ele>181.000000</ele>
<time>2010-01-01T02:07:28.000Z</time>
</trkpt>
<trkpt lat="32.6014547" lon="35.3744552">
<ele>179.000000</ele>
<time>2010-01-01T02:07:35.000Z</time>
</trkpt>
<trkpt lat="32.6013215" lon="35.3742852">
<ele>180.000015</ele>
<time>2010-01-01T02:07:43.000Z</time>
</trkpt>
<trkpt lat="32.6012449" lon="35.3740733">
<ele>181.000000</ele>
<time>2010-01-01T02:07:51.000Z</time>
</trkpt>
<trkpt lat="32.6011508" lon="35.3738736">
<ele>181.000000</ele>
<time>2010-01-01T02:07:59.000Z</time>
</trkpt>
<trkpt lat="32.6010510" lon="35.3736430">
<ele>179.000000</ele>
<time>2010-01-01T02:08:07.000Z</time>
</trkpt>
<trkpt lat="32.6009680" lon="35.3734481">
<ele>180.000015</ele>
<time>2010-01-01T02:08:15.000Z</time>
</trkpt>
<trkpt lat="32.6008974" lon="35.3732504">
<ele>182.000000</ele>
<time>2010-01-01T02:08:22.000Z</time>
</trkpt>
<trkpt lat="32.6008376" lon="35.3729768">
<ele>184.000000</ele>
<time>2010-01-01T02:08:31.000Z</time>
</trkpt>
<trkpt lat="32.6008127" lon="35.3727066">
<ele>184.000000</ele>
<time>2010-01-01T02:08:41.000Z</time>
</trkpt>
<trkpt lat="32.6008300" lon="35.3724779">
<ele>185.000000</ele>
<time>2010-01-01T02:08:48.000Z</time>
</trkpt>
<trkpt lat="32.6008464" lon="35.3722456">
<ele>188.000000</ele>
<time>2010-01-01T02:08:56.000Z</time>
</trkpt>
<trkpt lat="32.6008580" lon="35.3719968">
<ele>189.000000</ele>
<time>2010-01-01T02:09:05.000Z</time>
</trkpt>
<trkpt lat="32.6006666" lon="35.3718091">
<ele>187.000015</ele>
<time>2010-01-01T02:09:15.000Z</time>
</trkpt>
<trkpt lat="32.6004871" lon="35.3719404">
<ele>182.000000</ele>
<time>2010-01-01T02:09:23.000Z</time>
</trkpt>
<trkpt lat="32.6002568" lon="35.3721293">
<ele>179.000000</ele>
<time>2010-01-01T02:09:34.000Z</time>
</trkpt>
<trkpt lat="32.6000059" lon="35.3723220">
<ele>178.000000</ele>
<time>2010-01-01T02:09:46.000Z</time>
</trkpt>
<trkpt lat="32.5997740" lon="35.3725296">
<ele>174.000000</ele>
<time>2010-01-01T02:09:58.000Z</time>
</trkpt>
<trkpt lat="32.5995688" lon="35.3726631">
<ele>171.000000</ele>
<time>2010-01-01T02:10:07.000Z</time>
</trkpt>
<trkpt lat="32.5993459" lon="35.3727351">
<ele>167.000000</ele>
<time>2010-01-01T02:10:16.000Z</time>
</trkpt>
<trkpt lat="32.5992515" lon="35.3725443">
<ele>165.000000</ele>
<time>2010-01-01T02:10:24.000Z</time>
</trkpt>
<trkpt lat="32.5990762" lon="35.3726104">
<ele>163.000000</ele>
<time>2010-01-01T02:10:31.000Z</time>
</trkpt>
<trkpt lat="32.5989147" lon="35.3728203">
<ele>161.999985</ele>
<time>2010-01-01T02:10:41.000Z</time>
</trkpt>
<trkpt lat="32.5986859" lon="35.3728891">
<ele>163.000000</ele>
<time>2010-01-01T02:10:50.000Z</time>
</trkpt>
<trkpt lat="32.5984667" lon="35.3729171">
<ele>163.000000</ele>
<time>2010-01-01T02:10:59.000Z</time>
</trkpt>
<trkpt lat="32.5983130" lon="35.3727438">
<ele>164.000000</ele>
<time>2010-01-01T02:11:08.000Z</time>
</trkpt>
<trkpt lat="32.5982387" lon="35.3725050">
<ele>165.000000</ele>
<time>2010-01-01T02:11:16.000Z</time>
</trkpt>
<trkpt lat="32.5980938" lon="35.3723328">
<ele>166.000000</ele>
<time>2010-01-01T02:11:24.000Z</time>
</trkpt>
<trkpt lat="32.5979371" lon="35.3724473">
<ele>166.000000</ele>
<time>2010-01-01T02:11:32.000Z</time>
</trkpt>
<trkpt lat="32.5977852" lon="35.3725923">
<ele>166.000000</ele>
<time>2010-01-01T02:11:39.000Z</time>
</trkpt>
<trkpt lat="32.5976660" lon="35.3727644">
<ele>166.000000</ele>
<time>2010-01-01T02:11:47.000Z</time>
</trkpt>
<trkpt lat="32.5974997" lon="35.3729334">
<ele>166.000000</ele>
<time>2010-01-01T02:11:56.000Z</time>
</trkpt>
<trkpt lat="32.5973924" lon="35.3731290">
<ele>165.000000</ele>
<time>2010-01-01T02:12:04.000Z</time>
</trkpt>
<trkpt lat="32.5972882" lon="35.3733615">
<ele>163.000000</ele>
<time>2010-01-01T02:12:13.000Z</time>
</trkpt>
<trkpt lat="32.5972102" lon="35.3735746">
<ele>161.999985</ele>
<time>2010-01-01T02:12:20.000Z</time>
</trkpt>
<trkpt lat="32.5971419" lon="35.3737884">
<ele>161.000000</ele>
<time>2010-01-01T02:12:28.000Z</time>
</trkpt>
<trkpt lat="32.5969793" lon="35.3740222">
<ele>163.000000</ele>
<time>2010-01-01T02:12:38.000Z</time>
</trkpt>
<trkpt lat="32.5968015" lon="35.3741477">
<ele>166.000000</ele>
<time>2010-01-01T02:12:47.000Z</time>
</trkpt>
<trkpt lat="32.5966001" lon="35.3743358">
<ele>167.000000</ele>
<time>2010-01-01T02:12:57.000Z</time>
</trkpt>
<trkpt lat="32.5963562" lon="35.3744466">
<ele>167.000000</ele>
<time>2010-01-01T02:13:07.000Z</time>
</trkpt>
<trkpt lat="32.5961170" lon="35.3745324">
<ele>165.000000</ele>
<time>2010-01-01T02:13:17.000Z</time>
</trkpt>
<trkpt lat="32.5959322" lon="35.3746234">
<ele>163.000000</ele>
<time>2010-01-01T02:13:25.000Z</time>
</trkpt>
<trkpt lat="32.5957590" lon="35.3747498">
<ele>163.000000</ele>
<time>2010-01-01T02:13:33.000Z</time>
</trkpt>
<trkpt lat="32.5955707" lon="35.3748720">
<ele>163.000000</ele>
<time>2010-01-01T02:13:42.000Z</time>
</trkpt>
<trkpt lat="32.5954025" lon="35.3750374">
<ele>161.999985</ele>
<time>2010-01-01T02:13:51.000Z</time>
</trkpt>
<trkpt lat="32.5951984" lon="35.3752176">
<ele>159.000000</ele>
<time>2010-01-01T02:14:01.000Z</time>
</trkpt>
<trkpt lat="32.5950326" lon="35.3754227">
<ele>158.000000</ele>
<time>2010-01-01T02:14:11.000Z</time>
</trkpt>
<trkpt lat="32.5948382" lon="35.3755960">
<ele>155.000000</ele>
<time>2010-01-01T02:14:20.000Z</time>
</trkpt>
<trkpt lat="32.5946213" lon="35.3757295">
<ele>153.000000</ele>
<time>2010-01-01T02:14:30.000Z</time>
</trkpt>
<trkpt lat="32.5944275" lon="35.3758856">
<ele>150.000000</ele>
<time>2010-01-01T02:14:39.000Z</time>
</trkpt>
<trkpt lat="32.5942220" lon="35.3760604">
<ele>149.000000</ele>
<time>2010-01-01T02:14:50.000Z</time>
</trkpt>
<trkpt lat="32.5940164" lon="35.3762190">
<ele>149.000000</ele>
<time>2010-01-01T02:14:59.000Z</time>
</trkpt>
<trkpt lat="32.5938547" lon="35.3764038">
<ele>150.000000</ele>
<time>2010-01-01T02:15:08.000Z</time>
</trkpt>
<trkpt lat="32.5937843" lon="35.3767075">
<ele>151.000000</ele>
<time>2010-01-01T02:15:19.000Z</time>
</trkpt>
<trkpt lat="32.5934991" lon="35.3767649">
<ele>150.000000</ele>
<time>2010-01-01T02:15:31.000Z</time>
</trkpt>
<trkpt lat="32.5932566" lon="35.3767559">
<ele>149.000000</ele>
<time>2010-01-01T02:15:40.000Z</time>
</trkpt>
<trkpt lat="32.5931193" lon="35.3765751">
<ele>150.000000</ele>
<time>2010-01-01T02:15:48.000Z</time>
</trkpt>
<trkpt lat="32.5930820" lon="35.3763469">
<ele>152.000000</ele>
<time>2010-01-01T02:15:56.000Z</time>
</trkpt>
<trkpt lat="32.5930888" lon="35.3760915">
<ele>149.000000</ele>
<time>2010-01-01T02:16:05.000Z</time>
</trkpt>
<trkpt lat="32.5932098" lon="35.3758728">
<ele>148.000000</ele>
<time>2010-01-01T02:16:14.000Z</time>
</trkpt>
<trkpt lat="32.5933716" lon="35.3757605">
<ele>149.000000</ele>
<time>2010-01-01T02:16:21.000Z</time>
</trkpt>
<trkpt lat="32.5935384" lon="35.3756510">
<ele>149.000000</ele>
<time>2010-01-01T02:16:29.000Z</time>
</trkpt>
<trkpt lat="32.5937029" lon="35.3755354">
<ele>150.000000</ele>
<time>2010-01-01T02:16:37.000Z</time>
</trkpt>
<trkpt lat="32.5939005" lon="35.3753979">
<ele>149.000000</ele>
<time>2010-01-01T02:16:46.000Z</time>
</trkpt>
<trkpt lat="32.5940428" lon="35.3752375">
<ele>150.000000</ele>
<time>2010-01-01T02:16:54.000Z</time>
</trkpt>
<trkpt lat="32.5942541" lon="35.3749819">
<ele>152.000000</ele>
<time>2010-01-01T02:17:06.000Z</time>
</trkpt>
<trkpt lat="32.5943825" lon="35.3747509">
<ele>151.000000</ele>
<time>2010-01-01T02:17:15.000Z</time>
</trkpt>
<trkpt lat="32.5944574" lon="35.3745361">
<ele>150.000000</ele>
<time>2010-01-01T02:17:23.000Z</time>
</trkpt>
<trkpt lat="32.5944866" lon="35.3742516">
<ele>151.000000</ele>
<time>2010-01-01T02:17:32.000Z</time>
</trkpt>
<trkpt lat="32.5945014" lon="35.3739605">
<ele>152.000000</ele>
<time>2010-01-01T02:17:42.000Z</time>
</trkpt>
<trkpt lat="32.5944751" lon="35.3737046">
<ele>153.000000</ele>
<time>2010-01-01T02:17:51.000Z</time>
</trkpt>
<trkpt lat="32.5943740" lon="35.3734416">
<ele>155.000000</ele>
<time>2010-01-01T02:18:01.000Z</time>
</trkpt>
<trkpt lat="32.5941942" lon="35.3733072">
<ele>155.000000</ele>
<time>2010-01-01T02:18:09.000Z</time>
</trkpt>
<trkpt lat="32.5939725" lon="35.3732965">
<ele>151.000000</ele>
<time>2010-01-01T02:18:18.000Z</time>
</trkpt>
<trkpt lat="32.5937882" lon="35.3732764">
<ele>148.000000</ele>
<time>2010-01-01T02:18:26.000Z</time>
</trkpt>
<trkpt lat="32.5935567" lon="35.3731666">
<ele>147.000000</ele>
<time>2010-01-01T02:18:36.000Z</time>
</trkpt>
<trkpt lat="32.5933608" lon="35.3730275">
<ele>147.000000</ele>
<time>2010-01-01T02:18:45.000Z</time>
</trkpt>
<trkpt lat="32.5931761" lon="35.3728224">
<ele>149.000000</ele>
<time>2010-01-01T02:18:55.000Z</time>
</trkpt>
<trkpt lat="32.5929767" lon="35.3726452">
<ele>148.000000</ele>
<time>2010-01-01T02:19:05.000Z</time>
</trkpt>
<trkpt lat="32.5927957" lon="35.3725112">
<ele>146.000000</ele>
<time>2010-01-01T02:19:13.000Z</time>
</trkpt>
<trkpt lat="32.5928423" lon="35.3727443">
<ele>145.000000</ele>
<time>2010-01-01T02:19:21.000Z</time>
</trkpt>
<trkpt lat="32.5930019" lon="35.3729134">
<ele>145.000000</ele>
<time>2010-01-01T02:19:30.000Z</time>
</trkpt>
<trkpt lat="32.5931400" lon="35.3731083">
<ele>144.000000</ele>
<time>2010-01-01T02:19:39.000Z</time>
</trkpt>
<trkpt lat="32.5932312" lon="35.3734067">
<ele>141.000000</ele>
<time>2010-01-01T02:19:49.000Z</time>
</trkpt>
<trkpt lat="32.5933655" lon="35.3737166">
<ele>139.000000</ele>
<time>2010-01-01T02:20:01.000Z</time>
</trkpt>
<trkpt lat="32.5935558" lon="35.3739002">
<ele>139.000000</ele>
<time>2010-01-01T02:20:11.000Z</time>
</trkpt>
<trkpt lat="32.5937302" lon="35.3741200">
<ele>139.000000</ele>
<time>2010-01-01T02:20:21.000Z</time>
</trkpt>
<trkpt lat="32.5937047" lon="35.3743682">
<ele>138.000000</ele>
<time>2010-01-01T02:20:29.000Z</time>
</trkpt>
<trkpt lat="32.5935260" lon="35.3746157">
<ele>136.000000</ele>
<time>2010-01-01T02:20:40.000Z</time>
</trkpt>
<trkpt lat="32.5932915" lon="35.3747551">
<ele>135.000000</ele>
<time>2010-01-01T02:20:51.000Z</time>
</trkpt>
<trkpt lat="32.5930115" lon="35.3748453">
<ele>134.000000</ele>
<time>2010-01-01T02:21:03.000Z</time>
</trkpt>
<trkpt lat="32.5927505" lon="35.3749309">
<ele>133.000000</ele>
<time>2010-01-01T02:21:13.000Z</time>
</trkpt>
<trkpt lat="32.5925253" lon="35.3750141">
<ele>130.000000</ele>
<time>2010-01-01T02:21:23.000Z</time>
</trkpt>
<trkpt lat="32.5923412" lon="35.3751544">
<ele>128.000000</ele>
<time>2010-01-01T02:21:32.000Z</time>
</trkpt>
<trkpt lat="32.5921893" lon="35.3753499">
<ele>127.000000</ele>
<time>2010-01-01T02:21:41.000Z</time>
</trkpt>
<trkpt lat="32.5920838" lon="35.3755348">
<ele>130.000000</ele>
<time>2010-01-01T02:21:48.000Z</time>
</trkpt>
<trkpt lat="32.5919567" lon="35.3756976">
<ele>130.000000</ele>
<time>2010-01-01T02:21:56.000Z</time>
</trkpt>
<trkpt lat="32.5918117" lon="35.3758989">
<ele>130.000000</ele>
<time>2010-01-01T02:22:05.000Z</time>
</trkpt>
<trkpt lat="32.5916460" lon="35.3761688">
<ele>130.000000</ele>
<time>2010-01-01T02:22:16.000Z</time>
</trkpt>
<trkpt lat="32.5915880" lon="35.3764940">
<ele>131.000000</ele>
<time>2010-01-01T02:22:27.000Z</time>
</trkpt>
<trkpt lat="32.5916014" lon="35.3768064">
<ele>132.000000</ele>
<time>2010-01-01T02:22:38.000Z</time>
</trkpt>
<trkpt lat="32.5916536" lon="35.3770367">
<ele>133.000000</ele>
<time>2010-01-01T02:22:46.000Z</time>
</trkpt>
<trkpt lat="32.5917892" lon="35.3772174">
<ele>132.000000</ele>
<time>2010-01-01T02:22:54.000Z</time>
</trkpt>
<trkpt lat="32.5919401" lon="35.3774430">
<ele>129.000000</ele>
<time>2010-01-01T02:23:03.000Z</time>
</trkpt>
<trkpt lat="32.5921407" lon="35.3776411">
<ele>128.000000</ele>
<time>2010-01-01T02:23:14.000Z</time>
</trkpt>
<trkpt lat="32.5923094" lon="35.3778135">
<ele>126.000000</ele>
<time>2010-01-01T02:23:23.000Z</time>
</trkpt>
<trkpt lat="32.5925512" lon="35.3779127">
<ele>126.000000</ele>
<time>2010-01-01T02:23:33.000Z</time>
</trkpt>
<trkpt lat="32.5927954" lon="35.3780911">
<ele>125.000000</ele>
<time>2010-01-01T02:23:45.000Z</time>
</trkpt>
<trkpt lat="32.5930070" lon="35.3782098">
<ele>125.000000</ele>
<time>2010-01-01T02:23:54.000Z</time>
</trkpt>
<trkpt lat="32.5932180" lon="35.3782804">
<ele>125.000000</ele>
<time>2010-01-01T02:24:03.000Z</time>
</trkpt>
<trkpt lat="32.5934172" lon="35.3783270">
<ele>125.000000</ele>
<time>2010-01-01T02:24:11.000Z</time>
</trkpt>
<trkpt lat="32.5936265" lon="35.3784422">
<ele>123.000000</ele>
<time>2010-01-01T02:24:20.000Z</time>
</trkpt>
<trkpt lat="32.5938121" lon="35.3786452">
<ele>122.000008</ele>
<time>2010-01-01T02:24:30.000Z</time>
</trkpt>
<trkpt lat="32.5936384" lon="35.3787851">
<ele>120.000000</ele>
<time>2010-01-01T02:24:39.000Z</time>
</trkpt>
<trkpt lat="32.5934206" lon="35.3788112">
<ele>119.000000</ele>
<time>2010-01-01T02:24:47.000Z</time>
</trkpt>
<trkpt lat="32.5932197" lon="35.3788673">
<ele>118.000000</ele>
<time>2010-01-01T02:24:56.000Z</time>
</trkpt>
<trkpt lat="32.5930268" lon="35.3789325">
<ele>118.000000</ele>
<time>2010-01-01T02:25:04.000Z</time>
</trkpt>
<trkpt lat="32.5928114" lon="35.3789799">
<ele>118.000000</ele>
<time>2010-01-01T02:25:12.000Z</time>
</trkpt>
<trkpt lat="32.5926047" lon="35.3790257">
<ele>118.000000</ele>
<time>2010-01-01T02:25:21.000Z</time>
</trkpt>
<trkpt lat="32.5923871" lon="35.3790564">
<ele>118.000000</ele>
<time>2010-01-01T02:25:30.000Z</time>
</trkpt>
<trkpt lat="32.5921482" lon="35.3791039">
<ele>119.000000</ele>
<time>2010-01-01T02:25:39.000Z</time>
</trkpt>
<trkpt lat="32.5919698" lon="35.3791497">
<ele>117.000000</ele>
<time>2010-01-01T02:25:47.000Z</time>
</trkpt>
<trkpt lat="32.5917479" lon="35.3791802">
<ele>119.000000</ele>
<time>2010-01-01T02:25:55.000Z</time>
</trkpt>
<trkpt lat="32.5915630" lon="35.3791535">
<ele>120.000000</ele>
<time>2010-01-01T02:26:03.000Z</time>
</trkpt>
<trkpt lat="32.5913401" lon="35.3790798">
<ele>118.000000</ele>
<time>2010-01-01T02:26:12.000Z</time>
</trkpt>
<trkpt lat="32.5911433" lon="35.3790259">
<ele>116.000000</ele>
<time>2010-01-01T02:26:20.000Z</time>
</trkpt>
<trkpt lat="32.5909083" lon="35.3790051">
<ele>116.000000</ele>
<time>2010-01-01T02:26:30.000Z</time>
</trkpt>
<trkpt lat="32.5906884" lon="35.3789978">
<ele>118.000000</ele>
<time>2010-01-01T02:26:39.000Z</time>
</trkpt>
<trkpt lat="32.5904866" lon="35.3789235">
<ele>118.000000</ele>
<time>2010-01-01T02:26:47.000Z</time>
</trkpt>
<trkpt lat="32.5902851" lon="35.3789166">
<ele>118.000000</ele>
<time>2010-01-01T02:26:55.000Z</time>
</trkpt>
<trkpt lat="32.5900916" lon="35.3789621">
<ele>117.000000</ele>
<time>2010-01-01T02:27:03.000Z</time>
</trkpt>
<trkpt lat="32.5898834" lon="35.3790814">
<ele>118.000000</ele>
<time>2010-01-01T02:27:12.000Z</time>
</trkpt>
<trkpt lat="32.5897030" lon="35.3792677">
<ele>118.000000</ele>
<time>2010-01-01T02:27:22.000Z</time>
</trkpt>
<trkpt lat="32.5895733" lon="35.3794424">
<ele>118.000000</ele>
<time>2010-01-01T02:27:30.000Z</time>
</trkpt>
<trkpt lat="32.5895841" lon="35.3797079">
<ele>119.000000</ele>
<time>2010-01-01T02:27:39.000Z</time>
</trkpt>
<trkpt lat="32.5896757" lon="35.3798964">
<ele>121.000000</ele>
<time>2010-01-01T02:27:46.000Z</time>
</trkpt>
<trkpt lat="32.5897981" lon="35.3800972">
<ele>122.000008</ele>
<time>2010-01-01T02:27:54.000Z</time>
</trkpt>
<trkpt lat="32.5898168" lon="35.3804061">
<ele>120.000000</ele>
<time>2010-01-01T02:28:05.000Z</time>
</trkpt>
<trkpt lat="32.5897398" lon="35.3806602">
<ele>120.000000</ele>
<time>2010-01-01T02:28:14.000Z</time>
</trkpt>
<trkpt lat="32.5896041" lon="35.3808988">
<ele>121.000000</ele>
<time>2010-01-01T02:28:24.000Z</time>
</trkpt>
<trkpt lat="32.5895058" lon="35.3810874">
<ele>122.000008</ele>
<time>2010-01-01T02:28:31.000Z</time>
</trkpt>
<trkpt lat="32.5894726" lon="35.3813290">
<ele>124.000000</ele>
<time>2010-01-01T02:28:39.000Z</time>
</trkpt>
<trkpt lat="32.5894524" lon="35.3816125">
<ele>124.000000</ele>
<time>2010-01-01T02:28:49.000Z</time>
</trkpt>
<trkpt lat="32.5893959" lon="35.3818924">
<ele>125.000000</ele>
<time>2010-01-01T02:28:59.000Z</time>
</trkpt>
<trkpt lat="32.5893219" lon="35.3821672">
<ele>127.000000</ele>
<time>2010-01-01T02:29:08.000Z</time>
</trkpt>
<trkpt lat="32.5892556" lon="35.3823823">
<ele>128.000000</ele>
<time>2010-01-01T02:29:16.000Z</time>
</trkpt>
<trkpt lat="32.5890930" lon="35.3825510">
<ele>128.000000</ele>
<time>2010-01-01T02:29:25.000Z</time>
</trkpt>
<trkpt lat="32.5889184" lon="35.3826149">
<ele>127.000000</ele>
<time>2010-01-01T02:29:32.000Z</time>
</trkpt>
<trkpt lat="32.5887308" lon="35.3826873">
<ele>128.000000</ele>
<time>2010-01-01T02:29:40.000Z</time>
</trkpt>
<trkpt lat="32.5885483" lon="35.3827889">
<ele>131.000000</ele>
<time>2010-01-01T02:29:48.000Z</time>
</trkpt>
<trkpt lat="32.5883536" lon="35.3828414">
<ele>131.000000</ele>
<time>2010-01-01T02:29:56.000Z</time>
</trkpt>
<trkpt lat="32.5882343" lon="35.3830104">
<ele>129.000000</ele>
<time>2010-01-01T02:30:03.000Z</time>
</trkpt>
<trkpt lat="32.5881708" lon="35.3832167">
<ele>127.000000</ele>
<time>2010-01-01T02:30:11.000Z</time>
</trkpt>
<trkpt lat="32.5881583" lon="35.3834539">
<ele>127.000000</ele>
<time>2010-01-01T02:30:19.000Z</time>
</trkpt>
<trkpt lat="32.5881608" lon="35.3836862">
<ele>128.000000</ele>
<time>2010-01-01T02:30:27.000Z</time>
</trkpt>
<trkpt lat="32.5881541" lon="35.3839264">
<ele>129.000000</ele>
<time>2010-01-01T02:30:35.000Z</time>
</trkpt>
<trkpt lat="32.5881804" lon="35.3841814">
<ele>131.000000</ele>
<time>2010-01-01T02:30:43.000Z</time>
</trkpt>
<trkpt lat="32.5882256" lon="35.3844557">
<ele>130.000000</ele>
<time>2010-01-01T02:30:53.000Z</time>
</trkpt>
<trkpt lat="32.5883632" lon="35.3846830">
<ele>130.000000</ele>
<time>2010-01-01T02:31:02.000Z</time>
</trkpt>
<trkpt lat="32.5885470" lon="35.3847125">
<ele>130.000000</ele>
<time>2010-01-01T02:31:10.000Z</time>
</trkpt>
<trkpt lat="32.5887704" lon="35.3846133">
<ele>131.000000</ele>
<time>2010-01-01T02:31:19.000Z</time>
</trkpt>
<trkpt lat="32.5890073" lon="35.3845144">
<ele>130.000000</ele>
<time>2010-01-01T02:31:29.000Z</time>
</trkpt>
<trkpt lat="32.5892208" lon="35.3845042">
<ele>129.000000</ele>
<time>2010-01-01T02:31:38.000Z</time>
</trkpt>
<trkpt lat="32.5894197" lon="35.3844530">
<ele>128.000000</ele>
<time>2010-01-01T02:31:46.000Z</time>
</trkpt>
<trkpt lat="32.5896445" lon="35.3842991">
<ele>128.000000</ele>
<time>2010-01-01T02:31:56.000Z</time>
</trkpt>
<trkpt lat="32.5897906" lon="35.3840790">
<ele>128.000000</ele>
<time>2010-01-01T02:32:06.000Z</time>
</trkpt>
<trkpt lat="32.5899621" lon="35.3838700">
<ele>129.000000</ele>
<time>2010-01-01T02:32:16.000Z</time>
</trkpt>
<trkpt lat="32.5900648" lon="35.3836110">
<ele>131.000000</ele>
<time>2010-01-01T02:32:25.000Z</time>
</trkpt>
<trkpt lat="32.5900983" lon="35.3833511">
<ele>131.000000</ele>
<time>2010-01-01T02:32:34.000Z</time>
</trkpt>
<trkpt lat="32.5901961" lon="35.3831458">
<ele>131.000000</ele>
<time>2010-01-01T02:32:42.000Z</time>
</trkpt>
<trkpt lat="32.5903895" lon="35.3830013">
<ele>132.000000</ele>
<time>2010-01-01T02:32:51.000Z</time>
</trkpt>
<trkpt lat="32.5905403" lon="35.3828476">
<ele>133.000000</ele>
<time>2010-01-01T02:32:59.000Z</time>
</trkpt>
<trkpt lat="32.5907326" lon="35.3827721">
<ele>134.000000</ele>
<time>2010-01-01T02:33:07.000Z</time>
</trkpt>
<trkpt lat="32.5908090" lon="35.3825551">
<ele>134.000000</ele>
<time>2010-01-01T02:33:15.000Z</time>
</trkpt>
<trkpt lat="32.5909434" lon="35.3823569">
<ele>135.000000</ele>
<time>2010-01-01T02:33:24.000Z</time>
</trkpt>
<trkpt lat="32.5911226" lon="35.3822874">
<ele>136.000000</ele>
<time>2010-01-01T02:33:31.000Z</time>
</trkpt>
<trkpt lat="32.5913092" lon="35.3823160">
<ele>137.000000</ele>
<time>2010-01-01T02:33:39.000Z</time>
</trkpt>
<trkpt lat="32.5914993" lon="35.3822809">
<ele>138.000000</ele>
<time>2010-01-01T02:33:47.000Z</time>
</trkpt>
<trkpt lat="32.5916504" lon="35.3821299">
<ele>141.000000</ele>
<time>2010-01-01T02:33:55.000Z</time>
</trkpt>
<trkpt lat="32.5916517" lon="35.3818932">
<ele>143.000000</ele>
<time>2010-01-01T02:34:03.000Z</time>
</trkpt>
<trkpt lat="32.5917745" lon="35.3817225">
<ele>145.000000</ele>
<time>2010-01-01T02:34:10.000Z</time>
</trkpt>
<trkpt lat="32.5918475" lon="35.3815266">
<ele>146.000000</ele>
<time>2010-01-01T02:34:17.000Z</time>
</trkpt>
<trkpt lat="32.5919720" lon="35.3813550">
<ele>147.000000</ele>
<time>2010-01-01T02:34:25.000Z</time>
</trkpt>
<trkpt lat="32.5920144" lon="35.3811272">
<ele>148.000000</ele>
<time>2010-01-01T02:34:33.000Z</time>
</trkpt>
<trkpt lat="32.5919769" lon="35.3808987">
<ele>147.000000</ele>
<time>2010-01-01T02:34:41.000Z</time>
</trkpt>
<trkpt lat="32.5920815" lon="35.3806458">
<ele>146.000000</ele>
<time>2010-01-01T02:34:50.000Z</time>
</trkpt>
<trkpt lat="32.5923300" lon="35.3804904">
<ele>145.000000</ele>
<time>2010-01-01T02:35:01.000Z</time>
</trkpt>
<trkpt lat="32.5925139" lon="35.3806214">
<ele>146.000000</ele>
<time>2010-01-01T02:35:10.000Z</time>
</trkpt>
<trkpt lat="32.5925250" lon="35.3808361">
<ele>147.000000</ele>
<time>2010-01-01T02:35:17.000Z</time>
</trkpt>
<trkpt lat="32.5927195" lon="35.3808374">
<ele>144.000000</ele>
<time>2010-01-01T02:35:25.000Z</time>
</trkpt>
<trkpt lat="32.5928966" lon="35.3806582">
<ele>141.000000</ele>
<time>2010-01-01T02:35:34.000Z</time>
</trkpt>
<trkpt lat="32.5929536" lon="35.3804174">
<ele>140.000000</ele>
<time>2010-01-01T02:35:43.000Z</time>
</trkpt>
<trkpt lat="32.5930573" lon="35.3802233">
<ele>139.000000</ele>
<time>2010-01-01T02:35:51.000Z</time>
</trkpt>
<trkpt lat="32.5932579" lon="35.3803056">
<ele>137.000000</ele>
<time>2010-01-01T02:35:59.000Z</time>
</trkpt>
<trkpt lat="32.5933256" lon="35.3805111">
<ele>136.000000</ele>
<time>2010-01-01T02:36:07.000Z</time>
</trkpt>
<trkpt lat="32.5935496" lon="35.3806176">
<ele>135.000000</ele>
<time>2010-01-01T02:36:16.000Z</time>
</trkpt>
<trkpt lat="32.5937430" lon="35.3805951">
<ele>135.000000</ele>
<time>2010-01-01T02:36:24.000Z</time>
</trkpt>
<trkpt lat="32.5939328" lon="35.3806460">
<ele>135.000000</ele>
<time>2010-01-01T02:36:32.000Z</time>
</trkpt>
<trkpt lat="32.5940861" lon="35.3807578">
<ele>135.000000</ele>
<time>2010-01-01T02:36:39.000Z</time>
</trkpt>
<trkpt lat="32.5943179" lon="35.3808870">
<ele>135.000000</ele>
<time>2010-01-01T02:36:49.000Z</time>
</trkpt>
<trkpt lat="32.5945077" lon="35.3810419">
<ele>136.000000</ele>
<time>2010-01-01T02:36:58.000Z</time>
</trkpt>
<trkpt lat="32.5946243" lon="35.3812229">
<ele>138.000000</ele>
<time>2010-01-01T02:37:06.000Z</time>
</trkpt>
<trkpt lat="32.5943817" lon="35.3812040">
<ele>137.000000</ele>
<time>2010-01-01T02:37:16.000Z</time>
</trkpt>
<trkpt lat="32.5943981" lon="35.3814376">
<ele>140.000000</ele>
<time>2010-01-01T02:37:24.000Z</time>
</trkpt>
<trkpt lat="32.5945853" lon="35.3815413">
<ele>142.000000</ele>
<time>2010-01-01T02:37:32.000Z</time>
</trkpt>
<trkpt lat="32.5947550" lon="35.3816496">
<ele>143.000000</ele>
<time>2010-01-01T02:37:40.000Z</time>
</trkpt>
<trkpt lat="32.5946922" lon="35.3819116">
<ele>144.000000</ele>
<time>2010-01-01T02:37:49.000Z</time>
</trkpt>
<trkpt lat="32.5947483" lon="35.3821172">
<ele>145.000000</ele>
<time>2010-01-01T02:37:56.000Z</time>
</trkpt>
<trkpt lat="32.5948110" lon="35.3823546">
<ele>144.000000</ele>
<time>2010-01-01T02:38:05.000Z</time>
</trkpt>
<trkpt lat="32.5948293" lon="35.3825785">
<ele>143.000000</ele>
<time>2010-01-01T02:38:12.000Z</time>
</trkpt>
<trkpt lat="32.5947717" lon="35.3828585">
<ele>142.000000</ele>
<time>2010-01-01T02:38:22.000Z</time>
</trkpt>
<trkpt lat="32.5948955" lon="35.3830943">
<ele>142.000000</ele>
<time>2010-01-01T02:38:31.000Z</time>
</trkpt>
<trkpt lat="32.5950756" lon="35.3832216">
<ele>143.000000</ele>
<time>2010-01-01T02:38:40.000Z</time>
</trkpt>
<trkpt lat="32.5952502" lon="35.3831227">
<ele>143.000000</ele>
<time>2010-01-01T02:38:47.000Z</time>
</trkpt>
<trkpt lat="32.5954228" lon="35.3829274">
<ele>142.000000</ele>
<time>2010-01-01T02:38:57.000Z</time>
</trkpt>
<trkpt lat="32.5955071" lon="35.3827174">
<ele>143.000000</ele>
<time>2010-01-01T02:39:05.000Z</time>
</trkpt>
<trkpt lat="32.5957018" lon="35.3825663">
<ele>143.000000</ele>
<time>2010-01-01T02:39:14.000Z</time>
</trkpt>
<trkpt lat="32.5958316" lon="35.3824100">
<ele>143.000000</ele>
<time>2010-01-01T02:39:22.000Z</time>
</trkpt>
<trkpt lat="32.5959772" lon="35.3822587">
<ele>143.000000</ele>
<time>2010-01-01T02:39:29.000Z</time>
</trkpt>
<trkpt lat="32.5961181" lon="35.3821118">
<ele>143.000000</ele>
<time>2010-01-01T02:39:37.000Z</time>
</trkpt>
<trkpt lat="32.5962546" lon="35.3819358">
<ele>144.000000</ele>
<time>2010-01-01T02:39:45.000Z</time>
</trkpt>
<trkpt lat="32.5964272" lon="35.3818093">
<ele>143.000000</ele>
<time>2010-01-01T02:39:53.000Z</time>
</trkpt>
<trkpt lat="32.5965928" lon="35.3816120">
<ele>143.000000</ele>
<time>2010-01-01T02:40:02.000Z</time>
</trkpt>
<trkpt lat="32.5967751" lon="35.3815184">
<ele>143.000000</ele>
<time>2010-01-01T02:40:10.000Z</time>
</trkpt>
<trkpt lat="32.5969871" lon="35.3815801">
<ele>142.000000</ele>
<time>2010-01-01T02:40:19.000Z</time>
</trkpt>
<trkpt lat="32.5971815" lon="35.3817156">
<ele>140.000000</ele>
<time>2010-01-01T02:40:28.000Z</time>
</trkpt>
<trkpt lat="32.5973900" lon="35.3818779">
<ele>140.000000</ele>
<time>2010-01-01T02:40:38.000Z</time>
</trkpt>
<trkpt lat="32.5976112" lon="35.3820496">
<ele>140.000000</ele>
<time>2010-01-01T02:40:49.000Z</time>
</trkpt>
<trkpt lat="32.5978622" lon="35.3822193">
<ele>140.000000</ele>
<time>2010-01-01T02:41:00.000Z</time>
</trkpt>
<trkpt lat="32.5981263" lon="35.3824008">
<ele>139.000000</ele>
<time>2010-01-01T02:41:12.000Z</time>
</trkpt>
<trkpt lat="32.5983566" lon="35.3826533">
<ele>137.000000</ele>
<time>2010-01-01T02:41:25.000Z</time>
</trkpt>
<trkpt lat="32.5984704" lon="35.3828617">
<ele>135.000000</ele>
<time>2010-01-01T02:41:33.000Z</time>
</trkpt>
<trkpt lat="32.5986310" lon="35.3831181">
<ele>132.000000</ele>
<time>2010-01-01T02:41:44.000Z</time>
</trkpt>
<trkpt lat="32.5987469" lon="35.3833727">
<ele>130.000000</ele>
<time>2010-01-01T02:41:54.000Z</time>
</trkpt>
<trkpt lat="32.5988138" lon="35.3836948">
<ele>128.000000</ele>
<time>2010-01-01T02:42:05.000Z</time>
</trkpt>
<trkpt lat="32.5987866" lon="35.3840037">
<ele>127.000000</ele>
<time>2010-01-01T02:42:16.000Z</time>
</trkpt>
<trkpt lat="32.5988123" lon="35.3842800">
<ele>125.000000</ele>
<time>2010-01-01T02:42:25.000Z</time>
</trkpt>
<trkpt lat="32.5987728" lon="35.3845756">
<ele>124.000000</ele>
<time>2010-01-01T02:42:35.000Z</time>
</trkpt>
<trkpt lat="32.5986233" lon="35.3847798">
<ele>123.000000</ele>
<time>2010-01-01T02:42:44.000Z</time>
</trkpt>
<trkpt lat="32.5988366" lon="35.3847912">
<ele>122.000008</ele>
<time>2010-01-01T02:42:53.000Z</time>
</trkpt>
<trkpt lat="32.5989579" lon="35.3849506">
<ele>121.000000</ele>
<time>2010-01-01T02:43:00.000Z</time>
</trkpt>
<trkpt lat="32.5991139" lon="35.3851746">
<ele>118.000000</ele>
<time>2010-01-01T02:43:10.000Z</time>
</trkpt>
<trkpt lat="32.5993217" lon="35.3854277">
<ele>115.000000</ele>
<time>2010-01-01T02:43:22.000Z</time>
</trkpt>
<trkpt lat="32.5995918" lon="35.3855562">
<ele>116.000000</ele>
<time>2010-01-01T02:43:33.000Z</time>
</trkpt>
<trkpt lat="32.5998745" lon="35.3855673">
<ele>117.000000</ele>
<time>2010-01-01T02:43:45.000Z</time>
</trkpt>
<trkpt lat="32.6001147" lon="35.3855329">
<ele>117.000000</ele>
<time>2010-01-01T02:43:54.000Z</time>
</trkpt>
<trkpt lat="32.6003118" lon="35.3856046">
<ele>112.999992</ele>
<time>2010-01-01T02:44:03.000Z</time>
</trkpt>
<trkpt lat="32.6005266" lon="35.3856544">
<ele>110.000000</ele>
<time>2010-01-01T02:44:11.000Z</time>
</trkpt>
<trkpt lat="32.6007828" lon="35.3856268">
<ele>110.000000</ele>
<time>2010-01-01T02:44:22.000Z</time>
</trkpt>
<trkpt lat="32.6010327" lon="35.3856948">
<ele>109.000000</ele>
<time>2010-01-01T02:44:32.000Z</time>
</trkpt>
<trkpt lat="32.6012740" lon="35.3857255">
<ele>109.000000</ele>
<time>2010-01-01T02:44:42.000Z</time>
</trkpt>
<trkpt lat="32.6015144" lon="35.3857241">
<ele>109.000000</ele>
<time>2010-01-01T02:44:51.000Z</time>
</trkpt>
<trkpt lat="32.6017820" lon="35.3857164">
<ele>109.000000</ele>
<time>2010-01-01T02:45:02.000Z</time>
</trkpt>
<trkpt lat="32.6020642" lon="35.3857608">
<ele>108.000000</ele>
<time>2010-01-01T02:45:13.000Z</time>
</trkpt>
<trkpt lat="32.6022844" lon="35.3858132">
<ele>108.000000</ele>
<time>2010-01-01T02:45:22.000Z</time>
</trkpt>
<trkpt lat="32.6025058" lon="35.3858740">
<ele>107.000000</ele>
<time>2010-01-01T02:45:31.000Z</time>
</trkpt>
<trkpt lat="32.6027614" lon="35.3859401">
<ele>103.999992</ele>
<time>2010-01-01T02:45:42.000Z</time>
</trkpt>
<trkpt lat="32.6030261" lon="35.3859643">
<ele>102.000000</ele>
<time>2010-01-01T02:45:53.000Z</time>
</trkpt>
<trkpt lat="32.6033118" lon="35.3859940">
<ele>100.000000</ele>
<time>2010-01-01T02:46:04.000Z</time>
</trkpt>
<trkpt lat="32.6036216" lon="35.3860412">
<ele>98.000000</ele>
<time>2010-01-01T02:46:16.000Z</time>
</trkpt>
<trkpt lat="32.6039134" lon="35.3861259">
<ele>96.000000</ele>
<time>2010-01-01T02:46:29.000Z</time>
</trkpt>
<trkpt lat="32.6041897" lon="35.3861291">
<ele>93.000000</ele>
<time>2010-01-01T02:46:40.000Z</time>
</trkpt>
<trkpt lat="32.6043770" lon="35.3860839">
<ele>92.000000</ele>
<time>2010-01-01T02:46:47.000Z</time>
</trkpt>
<trkpt lat="32.6044505" lon="35.3863800">
<ele>87.999992</ele>
<time>2010-01-01T02:46:58.000Z</time>
</trkpt>
<trkpt lat="32.6046310" lon="35.3865641">
<ele>86.000000</ele>
<time>2010-01-01T02:47:07.000Z</time>
</trkpt>
<trkpt lat="32.6046630" lon="35.3868450">
<ele>87.000000</ele>
<time>2010-01-01T02:47:17.000Z</time>
</trkpt>
<trkpt lat="32.6046178" lon="35.3871906">
<ele>87.999992</ele>
<time>2010-01-01T02:47:29.000Z</time>
</trkpt>
<trkpt lat="32.6045769" lon="35.3875769">
<ele>87.000000</ele>
<time>2010-01-01T02:47:42.000Z</time>
</trkpt>
<trkpt lat="32.6045391" lon="35.3880028">
<ele>82.000000</ele>
<time>2010-01-01T02:47:56.000Z</time>
</trkpt>
<trkpt lat="32.6044801" lon="35.3884240">
<ele>78.000000</ele>
<time>2010-01-01T02:48:10.000Z</time>
</trkpt>
<trkpt lat="32.6044592" lon="35.3886411">
<ele>76.000000</ele>
<time>2010-01-01T02:48:18.000Z</time>
</trkpt>
<trkpt lat="32.6044120" lon="35.3890602">
<ele>76.000000</ele>
<time>2010-01-01T02:48:32.000Z</time>
</trkpt>
<trkpt lat="32.6043870" lon="35.3892761">
<ele>76.000000</ele>
<time>2010-01-01T02:48:39.000Z</time>
</trkpt>
<trkpt lat="32.6043580" lon="35.3894896">
<ele>75.000000</ele>
<time>2010-01-01T02:48:47.000Z</time>
</trkpt>
<trkpt lat="32.6043348" lon="35.3897066">
<ele>74.000000</ele>
<time>2010-01-01T02:48:54.000Z</time>
</trkpt>
<trkpt lat="32.6042773" lon="35.3901331">
<ele>71.000000</ele>
<time>2010-01-01T02:49:09.000Z</time>
</trkpt>
<trkpt lat="32.6042530" lon="35.3903490">
<ele>70.000000</ele>
<time>2010-01-01T02:49:16.000Z</time>
</trkpt>
<trkpt lat="32.6042289" lon="35.3905622">
<ele>68.000000</ele>
<time>2010-01-01T02:49:23.000Z</time>
</trkpt>
<trkpt lat="32.6042046" lon="35.3907770">
<ele>67.000000</ele>
<time>2010-01-01T02:49:31.000Z</time>
</trkpt>
<trkpt lat="32.6041536" lon="35.3912008">
<ele>66.000000</ele>
<time>2010-01-01T02:49:45.000Z</time>
</trkpt>
<trkpt lat="32.6041423" lon="35.3914236">
<ele>66.000000</ele>
<time>2010-01-01T02:49:53.000Z</time>
</trkpt>
<trkpt lat="32.6041306" lon="35.3916384">
<ele>66.000000</ele>
<time>2010-01-01T02:50:00.000Z</time>
</trkpt>
<trkpt lat="32.6041034" lon="35.3918568">
<ele>65.000000</ele>
<time>2010-01-01T02:50:07.000Z</time>
</trkpt>
<trkpt lat="32.6040797" lon="35.3920788">
<ele>64.000000</ele>
<time>2010-01-01T02:50:15.000Z</time>
</trkpt>
<trkpt lat="32.6040512" lon="35.3922988">
<ele>62.000000</ele>
<time>2010-01-01T02:50:22.000Z</time>
</trkpt>
<trkpt lat="32.6040171" lon="35.3925187">
<ele>60.000000</ele>
<time>2010-01-01T02:50:30.000Z</time>
</trkpt>
<trkpt lat="32.6039862" lon="35.3927428">
<ele>59.000000</ele>
<time>2010-01-01T02:50:38.000Z</time>
</trkpt>
<trkpt lat="32.6039621" lon="35.3929678">
<ele>59.000000</ele>
<time>2010-01-01T02:50:45.000Z</time>
</trkpt>
<trkpt lat="32.6039314" lon="35.3931807">
<ele>59.000000</ele>
<time>2010-01-01T02:50:52.000Z</time>
</trkpt>
<trkpt lat="32.6038856" lon="35.3935522">
<ele>58.000000</ele>
<time>2010-01-01T02:51:05.000Z</time>
</trkpt>
<trkpt lat="32.6038570" lon="35.3938200">
<ele>59.000000</ele>
<time>2010-01-01T02:51:14.000Z</time>
</trkpt>
<trkpt lat="32.6038481" lon="35.3940334">
<ele>60.000000</ele>
<time>2010-01-01T02:51:21.000Z</time>
</trkpt>
<trkpt lat="32.6036974" lon="35.3941617">
<ele>58.000000</ele>
<time>2010-01-01T02:51:29.000Z</time>
</trkpt>
<trkpt lat="32.6034341" lon="35.3941828">
<ele>57.000000</ele>
<time>2010-01-01T02:51:39.000Z</time>
</trkpt>
<trkpt lat="32.6032249" lon="35.3942059">
<ele>57.000000</ele>
<time>2010-01-01T02:51:48.000Z</time>
</trkpt>
<trkpt lat="32.6030230" lon="35.3942174">
<ele>58.000000</ele>
<time>2010-01-01T02:51:56.000Z</time>
</trkpt>
<trkpt lat="32.6028113" lon="35.3942395">
<ele>58.000000</ele>
<time>2010-01-01T02:52:04.000Z</time>
</trkpt>
<trkpt lat="32.6025818" lon="35.3942643">
<ele>58.000000</ele>
<time>2010-01-01T02:52:14.000Z</time>
</trkpt>
<trkpt lat="32.6023592" lon="35.3942952">
<ele>57.000000</ele>
<time>2010-01-01T02:52:23.000Z</time>
</trkpt>
<trkpt lat="32.6021300" lon="35.3943298">
<ele>55.000000</ele>
<time>2010-01-01T02:52:32.000Z</time>
</trkpt>
<trkpt lat="32.6019333" lon="35.3943341">
<ele>53.000004</ele>
<time>2010-01-01T02:52:40.000Z</time>
</trkpt>
<trkpt lat="32.6017247" lon="35.3943179">
<ele>54.000000</ele>
<time>2010-01-01T02:52:48.000Z</time>
</trkpt>
<trkpt lat="32.6014842" lon="35.3943326">
<ele>54.000000</ele>
<time>2010-01-01T02:52:58.000Z</time>
</trkpt>
<trkpt lat="32.6012550" lon="35.3942844">
<ele>55.000000</ele>
<time>2010-01-01T02:53:07.000Z</time>
</trkpt>
</trkseg>
</trk>
</gpx>
